SIA12 RJAA-KLAX
Flight info
| Callsign | SIA12 |
|---|---|
| Flight time | N/A |
| Altitude | 35000 |
| Route | +GULBO Y808 NOLAX Y814 AVBET OTR11 LEPKI 40N160E 41N170E 41N180E 41N170W/N0484F370 41N160W 41N150W 40N140W 38N130W/N0483F390 DCT ALLBE DCT PIRAT DCT BURGL IRNMN2 |
| Aircraft | B77W/H-SDE1E2E3FGHIJ4J5M1P2RWXYZ/LB1D1 |
Departure
| Time | N/A |
|---|---|
| Airport | Narita International Airport (RJAA) |
Arrival
| Time | 2026-05-04 21:03 |
|---|---|
| Airport | Los Angeles International Airport (KLAX) |
| Time | Latitude | Longitude | Altitude | Speed | Heading |
|---|---|---|---|---|---|
| 2026-05-04 12:37 | 37.49466 | 151.42151 | 34793 ft | 551 kts | 68° |
| 2026-05-04 12:37 | 37.50972 | 151.46588 | 34797 ft | 551 kts | 68° |
| 2026-05-04 12:38 | 37.53981 | 151.55470 | 34794 ft | 551 kts | 68° |
| 2026-05-04 12:38 | 37.56978 | 151.64346 | 34796 ft | 550 kts | 68° |
| 2026-05-04 12:39 | 37.59968 | 151.73228 | 34805 ft | 550 kts | 68° |
| 2026-05-04 12:39 | 37.62948 | 151.82105 | 34808 ft | 549 kts | 68° |
| 2026-05-04 12:40 | 37.65899 | 151.90925 | 34800 ft | 549 kts | 68° |
| 2026-05-04 12:40 | 37.68864 | 151.99812 | 34800 ft | 549 kts | 68° |
| 2026-05-04 12:41 | 37.71818 | 152.08691 | 34799 ft | 549 kts | 68° |
| 2026-05-04 12:41 | 37.74765 | 152.17580 | 34805 ft | 548 kts | 68° |
| 2026-05-04 12:42 | 37.77706 | 152.26476 | 34805 ft | 548 kts | 68° |
| 2026-05-04 12:42 | 37.80638 | 152.35371 | 34805 ft | 548 kts | 68° |
| 2026-05-04 12:43 | 37.83567 | 152.44285 | 34811 ft | 549 kts | 68° |
| 2026-05-04 12:43 | 37.86487 | 152.53200 | 34810 ft | 549 kts | 68° |
| 2026-05-04 12:44 | 37.89403 | 152.62131 | 34812 ft | 549 kts | 68° |
| 2026-05-04 12:44 | 37.92311 | 152.71064 | 34816 ft | 549 kts | 68° |
| 2026-05-04 12:45 | 37.95214 | 152.80010 | 34816 ft | 549 kts | 68° |
| 2026-05-04 12:45 | 37.98111 | 152.88965 | 34820 ft | 549 kts | 68° |
| 2026-05-04 12:46 | 38.00997 | 152.97916 | 34815 ft | 549 kts | 68° |
| 2026-05-04 12:46 | 38.03880 | 153.06883 | 34816 ft | 549 kts | 68° |
| 2026-05-04 12:47 | 38.06753 | 153.15848 | 34815 ft | 548 kts | 68° |
| 2026-05-04 12:47 | 38.09617 | 153.24814 | 34823 ft | 548 kts | 68° |
| 2026-05-04 12:48 | 38.12475 | 153.33788 | 34820 ft | 548 kts | 68° |
| 2026-05-04 12:48 | 38.15322 | 153.42758 | 34824 ft | 547 kts | 68° |
| 2026-05-04 12:49 | 38.18162 | 153.51733 | 34834 ft | 547 kts | 68° |
| 2026-05-04 12:49 | 38.20973 | 153.60645 | 34824 ft | 547 kts | 68° |
| 2026-05-04 12:50 | 38.23796 | 153.69625 | 34833 ft | 547 kts | 68° |
| 2026-05-04 12:50 | 38.26610 | 153.78603 | 34842 ft | 546 kts | 68° |
| 2026-05-04 12:51 | 38.29418 | 153.87592 | 34839 ft | 546 kts | 68° |
| 2026-05-04 12:51 | 38.32219 | 153.96587 | 34838 ft | 546 kts | 69° |
| 2026-05-04 12:52 | 38.35012 | 154.05585 | 34844 ft | 546 kts | 69° |
| 2026-05-04 12:52 | 38.37797 | 154.14587 | 34856 ft | 546 kts | 69° |
| 2026-05-04 12:53 | 38.40581 | 154.23613 | 34847 ft | 547 kts | 69° |
| 2026-05-04 12:53 | 38.43362 | 154.32662 | 34844 ft | 548 kts | 69° |
| 2026-05-04 12:54 | 38.46136 | 154.41715 | 34848 ft | 548 kts | 69° |
| 2026-05-04 12:54 | 38.48440 | 154.49256 | 34851 ft | 548 kts | 69° |
| 2026-05-04 12:55 | 38.51667 | 154.59858 | 34851 ft | 548 kts | 69° |
| 2026-05-04 12:55 | 38.53954 | 154.67395 | 34845 ft | 548 kts | 69° |
| 2026-05-04 12:56 | 38.56698 | 154.76463 | 34860 ft | 546 kts | 69° |
| 2026-05-04 12:56 | 38.59429 | 154.85519 | 34854 ft | 545 kts | 69° |
| 2026-05-04 12:57 | 38.62146 | 154.94561 | 34859 ft | 544 kts | 69° |
| 2026-05-04 12:57 | 38.64851 | 155.03591 | 34861 ft | 544 kts | 69° |
| 2026-05-04 12:58 | 38.67548 | 155.12625 | 34863 ft | 543 kts | 69° |
| 2026-05-04 12:58 | 38.70236 | 155.21658 | 34864 ft | 543 kts | 69° |
| 2026-05-04 12:59 | 38.72917 | 155.30700 | 34858 ft | 543 kts | 69° |
| 2026-05-04 12:59 | 38.75592 | 155.39752 | 34863 ft | 544 kts | 69° |
| 2026-05-04 13:00 | 38.78264 | 155.48823 | 34869 ft | 544 kts | 69° |
| 2026-05-04 13:00 | 38.80932 | 155.57910 | 34869 ft | 545 kts | 69° |
| 2026-05-04 13:01 | 38.83576 | 155.66947 | 34873 ft | 545 kts | 69° |
| 2026-05-04 13:01 | 38.86231 | 155.76051 | 34871 ft | 545 kts | 69° |
| 2026-05-04 13:02 | 38.88878 | 155.85161 | 34879 ft | 545 kts | 69° |
| 2026-05-04 13:02 | 38.91518 | 155.94277 | 34879 ft | 544 kts | 69° |
| 2026-05-04 13:03 | 38.94149 | 156.03392 | 34881 ft | 544 kts | 69° |
| 2026-05-04 13:03 | 38.96770 | 156.12505 | 34885 ft | 544 kts | 69° |
| 2026-05-04 13:04 | 38.99382 | 156.21618 | 34885 ft | 543 kts | 70° |
| 2026-05-04 13:04 | 39.01985 | 156.30731 | 34895 ft | 543 kts | 69° |
| 2026-05-04 13:05 | 39.04578 | 156.39841 | 34891 ft | 543 kts | 70° |
| 2026-05-04 13:05 | 39.07166 | 156.48962 | 34888 ft | 542 kts | 70° |
| 2026-05-04 13:06 | 39.09744 | 156.58081 | 34895 ft | 542 kts | 70° |
| 2026-05-04 13:06 | 39.12314 | 156.67207 | 34896 ft | 542 kts | 70° |
| 2026-05-04 13:07 | 39.14879 | 156.76344 | 34896 ft | 542 kts | 70° |
| 2026-05-04 13:07 | 39.17436 | 156.85483 | 34901 ft | 542 kts | 70° |
| 2026-05-04 13:08 | 39.19987 | 156.94635 | 34908 ft | 542 kts | 70° |
| 2026-05-04 13:08 | 39.22530 | 157.03792 | 34910 ft | 542 kts | 70° |
| 2026-05-04 13:09 | 39.25066 | 157.12953 | 34911 ft | 543 kts | 70° |
| 2026-05-04 13:09 | 39.27600 | 157.22143 | 34918 ft | 544 kts | 70° |
| 2026-05-04 13:10 | 39.30133 | 157.31357 | 34921 ft | 545 kts | 70° |
| 2026-05-04 13:10 | 39.32662 | 157.40596 | 34918 ft | 546 kts | 70° |
| 2026-05-04 13:11 | 39.35186 | 157.49848 | 34927 ft | 546 kts | 70° |
| 2026-05-04 13:11 | 39.37704 | 157.59110 | 34935 ft | 546 kts | 70° |
| 2026-05-04 13:12 | 39.40212 | 157.68368 | 34932 ft | 546 kts | 70° |
| 2026-05-04 13:12 | 39.42693 | 157.77561 | 34928 ft | 545 kts | 70° |
| 2026-05-04 13:13 | 39.45182 | 157.86819 | 34936 ft | 544 kts | 70° |
| 2026-05-04 13:13 | 39.47659 | 157.96067 | 34939 ft | 544 kts | 70° |
| 2026-05-04 13:14 | 39.50129 | 158.05316 | 34942 ft | 544 kts | 70° |
| 2026-05-04 13:14 | 39.52591 | 158.14573 | 34945 ft | 543 kts | 70° |
| 2026-05-04 13:15 | 39.55044 | 158.23835 | 34948 ft | 544 kts | 70° |
| 2026-05-04 13:15 | 39.57491 | 158.33103 | 34952 ft | 544 kts | 70° |
| 2026-05-04 13:16 | 39.59934 | 158.42391 | 34949 ft | 544 kts | 70° |
| 2026-05-04 13:16 | 39.62371 | 158.51694 | 34954 ft | 545 kts | 70° |
| 2026-05-04 13:17 | 39.64803 | 158.61011 | 34960 ft | 545 kts | 70° |
| 2026-05-04 13:17 | 39.67228 | 158.70335 | 34959 ft | 546 kts | 70° |
| 2026-05-04 13:18 | 39.69647 | 158.79674 | 34961 ft | 546 kts | 70° |
| 2026-05-04 13:18 | 39.72059 | 158.89020 | 34969 ft | 546 kts | 70° |
| 2026-05-04 13:19 | 39.74463 | 158.98370 | 34966 ft | 546 kts | 70° |
| 2026-05-04 13:19 | 39.76860 | 159.07729 | 34969 ft | 546 kts | 71° |
| 2026-05-04 13:20 | 39.79249 | 159.17091 | 34973 ft | 545 kts | 71° |
| 2026-05-04 13:20 | 39.81628 | 159.26452 | 34978 ft | 545 kts | 71° |
| 2026-05-04 13:21 | 39.84001 | 159.35824 | 34979 ft | 545 kts | 71° |
| 2026-05-04 13:21 | 39.86367 | 159.45207 | 34986 ft | 545 kts | 71° |
| 2026-05-04 13:22 | 39.88710 | 159.54532 | 34999 ft | 545 kts | 71° |
| 2026-05-04 13:22 | 39.91058 | 159.63919 | 34992 ft | 545 kts | 71° |
| 2026-05-04 13:23 | 39.93400 | 159.73315 | 34993 ft | 545 kts | 71° |
| 2026-05-04 13:23 | 39.95732 | 159.82708 | 35000 ft | 545 kts | 71° |
| 2026-05-04 13:24 | 39.98058 | 159.92110 | 34985 ft | 545 kts | 70° |
| 2026-05-04 13:24 | 40.00282 | 160.01559 | 35006 ft | 546 kts | 76° |
| 2026-05-04 13:25 | 40.02407 | 160.16156 | 35008 ft | 546 kts | 79° |
| 2026-05-04 13:25 | 40.03743 | 160.25925 | 35018 ft | 547 kts | 79° |
| 2026-05-04 13:26 | 40.05113 | 160.35703 | 35033 ft | 548 kts | 78° |
| 2026-05-04 13:26 | 40.06500 | 160.45499 | 35017 ft | 549 kts | 78° |
| 2026-05-04 13:27 | 40.07884 | 160.55313 | 35031 ft | 550 kts | 78° |
| 2026-05-04 13:27 | 40.09258 | 160.65143 | 35043 ft | 551 kts | 78° |
| 2026-05-04 13:28 | 40.10623 | 160.74988 | 35038 ft | 551 kts | 78° |
| 2026-05-04 13:28 | 40.11981 | 160.84851 | 35033 ft | 551 kts | 78° |
| 2026-05-04 13:29 | 40.13331 | 160.94714 | 35050 ft | 552 kts | 78° |
| 2026-05-04 13:29 | 40.14672 | 161.04578 | 35056 ft | 552 kts | 78° |
| 2026-05-04 13:30 | 40.16006 | 161.14457 | 35047 ft | 552 kts | 78° |
| 2026-05-04 13:30 | 40.17330 | 161.24329 | 35069 ft | 552 kts | 78° |
| 2026-05-04 13:31 | 40.18648 | 161.34219 | 35057 ft | 552 kts | 78° |
| 2026-05-04 13:31 | 40.19958 | 161.44115 | 35058 ft | 552 kts | 78° |
| 2026-05-04 13:32 | 40.21259 | 161.54012 | 35056 ft | 552 kts | 78° |
| 2026-05-04 13:32 | 40.22551 | 161.63915 | 35062 ft | 552 kts | 78° |
| 2026-05-04 13:33 | 40.23827 | 161.73759 | 35065 ft | 552 kts | 78° |
| 2026-05-04 13:33 | 40.25103 | 161.83669 | 35068 ft | 552 kts | 78° |
| 2026-05-04 13:34 | 40.26371 | 161.93585 | 35072 ft | 552 kts | 78° |
| 2026-05-04 13:34 | 40.27630 | 162.03502 | 35081 ft | 552 kts | 78° |
| 2026-05-04 13:35 | 40.29502 | 162.18386 | 35084 ft | 552 kts | 78° |
| 2026-05-04 13:36 | 40.30740 | 162.28316 | 35088 ft | 552 kts | 78° |
| 2026-05-04 13:36 | 40.31969 | 162.38249 | 35085 ft | 552 kts | 78° |
| 2026-05-04 13:37 | 40.33191 | 162.48184 | 35089 ft | 552 kts | 78° |
| 2026-05-04 13:37 | 40.34403 | 162.58123 | 35088 ft | 552 kts | 78° |
| 2026-05-04 13:38 | 40.35606 | 162.68067 | 35105 ft | 552 kts | 78° |
| 2026-05-04 13:38 | 40.36802 | 162.78011 | 35096 ft | 552 kts | 78° |
| 2026-05-04 13:39 | 40.37988 | 162.87957 | 35098 ft | 552 kts | 78° |
| 2026-05-04 13:39 | 40.39166 | 162.97905 | 35113 ft | 552 kts | 78° |
| 2026-05-04 13:40 | 40.40335 | 163.07858 | 35101 ft | 552 kts | 78° |
| 2026-05-04 13:40 | 40.41496 | 163.17811 | 35109 ft | 552 kts | 78° |
| 2026-05-04 13:41 | 40.42649 | 163.27776 | 35107 ft | 552 kts | 78° |
| 2026-05-04 13:41 | 40.43793 | 163.37745 | 35117 ft | 553 kts | 78° |
| 2026-05-04 13:42 | 40.45305 | 163.51040 | 35113 ft | 553 kts | 78° |
| 2026-05-04 13:42 | 40.46432 | 163.61036 | 35117 ft | 554 kts | 78° |
| 2026-05-04 13:43 | 40.47550 | 163.71041 | 35124 ft | 554 kts | 78° |
| 2026-05-04 13:43 | 40.48663 | 163.81070 | 35127 ft | 555 kts | 78° |
| 2026-05-04 13:44 | 40.49766 | 163.91100 | 35125 ft | 555 kts | 78° |
| 2026-05-04 13:44 | 40.50862 | 164.01147 | 35142 ft | 555 kts | 78° |
| 2026-05-04 13:45 | 40.51950 | 164.11201 | 35136 ft | 556 kts | 78° |
| 2026-05-04 13:45 | 40.53030 | 164.21269 | 35135 ft | 556 kts | 78° |
| 2026-05-04 13:46 | 40.54102 | 164.31344 | 35138 ft | 556 kts | 78° |
| 2026-05-04 13:46 | 40.55157 | 164.41352 | 35141 ft | 557 kts | 78° |
| 2026-05-04 13:47 | 40.56220 | 164.51506 | 35144 ft | 557 kts | 78° |
| 2026-05-04 13:47 | 40.57266 | 164.61597 | 35144 ft | 557 kts | 78° |
| 2026-05-04 13:48 | 40.58297 | 164.71626 | 35167 ft | 557 kts | 78° |
| 2026-05-04 13:48 | 40.59334 | 164.81802 | 35159 ft | 558 kts | 78° |
| 2026-05-04 13:49 | 40.60356 | 164.91921 | 35157 ft | 558 kts | 79° |
| 2026-05-04 13:49 | 40.61369 | 165.02045 | 35158 ft | 558 kts | 79° |
| 2026-05-04 13:50 | 40.62367 | 165.12113 | 35171 ft | 559 kts | 79° |
| 2026-05-04 13:50 | 40.63365 | 165.22268 | 35164 ft | 560 kts | 79° |
| 2026-05-04 13:51 | 40.64354 | 165.32427 | 35160 ft | 560 kts | 79° |
| 2026-05-04 13:51 | 40.65336 | 165.42601 | 35167 ft | 560 kts | 79° |
| 2026-05-04 13:52 | 40.66792 | 165.57885 | 35170 ft | 561 kts | 79° |
| 2026-05-04 13:53 | 40.67752 | 165.68071 | 35170 ft | 561 kts | 79° |
| 2026-05-04 13:53 | 40.68704 | 165.78275 | 35169 ft | 561 kts | 79° |
| 2026-05-04 13:54 | 40.70114 | 165.93580 | 35177 ft | 562 kts | 79° |
| 2026-05-04 13:55 | 40.71506 | 166.08909 | 35172 ft | 561 kts | 79° |
| 2026-05-04 13:55 | 40.72876 | 166.24239 | 35184 ft | 561 kts | 79° |
| 2026-05-04 13:56 | 40.73780 | 166.34465 | 35181 ft | 561 kts | 79° |
| 2026-05-04 13:57 | 40.75117 | 166.49810 | 35187 ft | 562 kts | 79° |
| 2026-05-04 13:58 | 40.76860 | 166.70186 | 35182 ft | 560 kts | 79° |
| 2026-05-04 13:58 | 40.78143 | 166.85464 | 35186 ft | 558 kts | 79° |
| 2026-05-04 13:59 | 40.78986 | 166.95632 | 35197 ft | 557 kts | 78° |
| 2026-05-04 14:00 | 40.80232 | 167.10865 | 35193 ft | 556 kts | 79° |
| 2026-05-04 14:00 | 40.81457 | 167.26093 | 35212 ft | 556 kts | 79° |
| 2026-05-04 14:01 | 40.82263 | 167.36252 | 35199 ft | 557 kts | 79° |
| 2026-05-04 14:02 | 40.83455 | 167.51505 | 35193 ft | 557 kts | 79° |
| 2026-05-04 14:02 | 40.84239 | 167.61678 | 35209 ft | 557 kts | 79° |
| 2026-05-04 14:03 | 40.85015 | 167.71859 | 35195 ft | 557 kts | 79° |
| 2026-05-04 14:03 | 40.85781 | 167.82042 | 35189 ft | 557 kts | 79° |
| 2026-05-04 14:04 | 40.86914 | 167.97325 | 35206 ft | 557 kts | 79° |
| 2026-05-04 14:04 | 40.87659 | 168.07531 | 35192 ft | 558 kts | 79° |
| 2026-05-04 14:05 | 40.88760 | 168.22844 | 35193 ft | 558 kts | 79° |
| 2026-05-04 14:06 | 40.89484 | 168.33066 | 35222 ft | 559 kts | 79° |
| 2026-05-04 14:06 | 40.90199 | 168.43301 | 35190 ft | 559 kts | 79° |
| 2026-05-04 14:07 | 40.90900 | 168.53470 | 35192 ft | 559 kts | 79° |
| 2026-05-04 14:07 | 40.91602 | 168.63785 | 35191 ft | 560 kts | 79° |
| 2026-05-04 14:08 | 40.92290 | 168.74030 | 35203 ft | 560 kts | 79° |
| 2026-05-04 14:08 | 40.92967 | 168.84232 | 35193 ft | 560 kts | 79° |
| 2026-05-04 14:09 | 40.93970 | 168.99636 | 35190 ft | 560 kts | 79° |
| 2026-05-04 14:10 | 40.94953 | 169.15044 | 35192 ft | 560 kts | 79° |
| 2026-05-04 14:10 | 40.95597 | 169.25315 | 35189 ft | 560 kts | 79° |
| 2026-05-04 14:11 | 40.96232 | 169.35591 | 35188 ft | 560 kts | 79° |
| 2026-05-04 14:11 | 40.97167 | 169.51012 | 35190 ft | 561 kts | 79° |
| 2026-05-04 14:12 | 40.97780 | 169.61303 | 35187 ft | 561 kts | 79° |
| 2026-05-04 14:13 | 40.98681 | 169.76735 | 35180 ft | 561 kts | 79° |
| 2026-05-04 14:13 | 40.99271 | 169.87030 | 35187 ft | 561 kts | 79° |
| 2026-05-04 14:14 | 40.99852 | 169.97323 | 35179 ft | 561 kts | 79° |
| 2026-05-04 14:14 | 41.00594 | 170.12802 | 35183 ft | 562 kts | 81° |
| 2026-05-04 14:15 | 41.01402 | 170.33487 | 35169 ft | 563 kts | 81° |
| 2026-05-04 14:16 | 41.02016 | 170.49011 | 35179 ft | 563 kts | 81° |
| 2026-05-04 14:17 | 41.02616 | 170.64543 | 35178 ft | 564 kts | 81° |
| 2026-05-04 14:18 | 41.03193 | 170.80119 | 35168 ft | 565 kts | 81° |
| 2026-05-04 14:19 | 41.03930 | 171.00919 | 35173 ft | 566 kts | 81° |
| 2026-05-04 14:19 | 41.04283 | 171.11262 | 35167 ft | 566 kts | 81° |
| 2026-05-04 14:20 | 41.04629 | 171.21690 | 35160 ft | 567 kts | 81° |
| 2026-05-04 14:20 | 41.04966 | 171.32122 | 35177 ft | 567 kts | 81° |
| 2026-05-04 14:21 | 41.05454 | 171.47790 | 35160 ft | 568 kts | 81° |
| 2026-05-04 14:21 | 41.05768 | 171.58250 | 35155 ft | 568 kts | 81° |
| 2026-05-04 14:22 | 41.06072 | 171.68690 | 35181 ft | 568 kts | 81° |
| 2026-05-04 14:22 | 41.06368 | 171.79157 | 35158 ft | 568 kts | 81° |
| 2026-05-04 14:23 | 41.06793 | 171.94866 | 35149 ft | 569 kts | 81° |
| 2026-05-04 14:24 | 41.07064 | 172.05331 | 35178 ft | 567 kts | 81° |
| 2026-05-04 14:24 | 41.07325 | 172.15783 | 35152 ft | 568 kts | 81° |
| 2026-05-04 14:25 | 41.07578 | 172.26231 | 35141 ft | 567 kts | 81° |
| 2026-05-04 14:25 | 41.07938 | 172.41903 | 35165 ft | 567 kts | 81° |
| 2026-05-04 14:26 | 41.08167 | 172.52356 | 35145 ft | 567 kts | 81° |
| 2026-05-04 14:26 | 41.08387 | 172.62811 | 35141 ft | 568 kts | 81° |
| 2026-05-04 14:27 | 41.08597 | 172.73276 | 35136 ft | 568 kts | 81° |
| 2026-05-04 14:27 | 41.08797 | 172.83737 | 35138 ft | 568 kts | 81° |
| 2026-05-04 14:28 | 41.08988 | 172.94205 | 35139 ft | 568 kts | 81° |
| 2026-05-04 14:28 | 41.09170 | 173.04676 | 35132 ft | 568 kts | 81° |
| 2026-05-04 14:29 | 41.09504 | 173.25567 | 35125 ft | 569 kts | 81° |
| 2026-05-04 14:30 | 41.09658 | 173.36065 | 35135 ft | 569 kts | 81° |
| 2026-05-04 14:31 | 41.09848 | 173.50108 | 35133 ft | 570 kts | 82° |
| 2026-05-04 14:32 | 41.10102 | 173.71148 | 35121 ft | 571 kts | 82° |
| 2026-05-04 14:32 | 41.10214 | 173.81679 | 35115 ft | 571 kts | 82° |
| 2026-05-04 14:33 | 41.10317 | 173.92214 | 35141 ft | 571 kts | 82° |
| 2026-05-04 14:33 | 41.10410 | 174.02690 | 35115 ft | 572 kts | 82° |
| 2026-05-04 14:34 | 41.10494 | 174.13238 | 35109 ft | 572 kts | 82° |
| 2026-05-04 14:34 | 41.10568 | 174.23791 | 35099 ft | 572 kts | 82° |
| 2026-05-04 14:35 | 41.10633 | 174.34339 | 35110 ft | 573 kts | 82° |
| 2026-05-04 14:35 | 41.10688 | 174.44905 | 35103 ft | 573 kts | 82° |
| 2026-05-04 14:36 | 41.10734 | 174.55477 | 35099 ft | 573 kts | 82° |
| 2026-05-04 14:36 | 41.10769 | 174.66042 | 35097 ft | 573 kts | 82° |
| 2026-05-04 14:37 | 41.10796 | 174.76618 | 35095 ft | 574 kts | 82° |
| 2026-05-04 14:37 | 41.10812 | 174.87202 | 35090 ft | 574 kts | 82° |
| 2026-05-04 14:38 | 41.10819 | 174.97787 | 35084 ft | 574 kts | 82° |
| 2026-05-04 14:38 | 41.10816 | 175.08368 | 35102 ft | 574 kts | 82° |
| 2026-05-04 14:39 | 41.10804 | 175.18966 | 35082 ft | 575 kts | 82° |
| 2026-05-04 14:39 | 41.10781 | 175.29557 | 35072 ft | 575 kts | 82° |
| 2026-05-04 14:40 | 41.10729 | 175.45441 | 35105 ft | 575 kts | 82° |
| 2026-05-04 14:40 | 41.10683 | 175.56044 | 35073 ft | 575 kts | 82° |
| 2026-05-04 14:41 | 41.10627 | 175.66644 | 35071 ft | 575 kts | 82° |
| 2026-05-04 14:42 | 41.10485 | 175.87842 | 35069 ft | 575 kts | 82° |
| 2026-05-04 14:42 | 41.10400 | 175.98446 | 35070 ft | 575 kts | 82° |
| 2026-05-04 14:43 | 41.10305 | 176.08985 | 35060 ft | 575 kts | 82° |
| 2026-05-04 14:43 | 41.10200 | 176.19599 | 35089 ft | 575 kts | 82° |
| 2026-05-04 14:44 | 41.10086 | 176.30215 | 35067 ft | 576 kts | 82° |
| 2026-05-04 14:44 | 41.09961 | 176.40842 | 35060 ft | 576 kts | 82° |
| 2026-05-04 14:45 | 41.09827 | 176.51465 | 35054 ft | 577 kts | 82° |
| 2026-05-04 14:45 | 41.09683 | 176.62093 | 35056 ft | 577 kts | 82° |
| 2026-05-04 14:46 | 41.09529 | 176.72727 | 35049 ft | 577 kts | 82° |
| 2026-05-04 14:46 | 41.09365 | 176.83359 | 35047 ft | 577 kts | 83° |
| 2026-05-04 14:47 | 41.09191 | 176.93999 | 35040 ft | 577 kts | 83° |
| 2026-05-04 14:47 | 41.09008 | 177.04640 | 35048 ft | 578 kts | 83° |
| 2026-05-04 14:48 | 41.08815 | 177.15304 | 35041 ft | 578 kts | 83° |
| 2026-05-04 14:48 | 41.08611 | 177.25962 | 35038 ft | 579 kts | 83° |
| 2026-05-04 14:49 | 41.08398 | 177.36620 | 35068 ft | 579 kts | 83° |
| 2026-05-04 14:49 | 41.08175 | 177.47304 | 35039 ft | 580 kts | 83° |
| 2026-05-04 14:50 | 41.07941 | 177.57995 | 35026 ft | 581 kts | 83° |
| 2026-05-04 14:50 | 41.07697 | 177.68697 | 35041 ft | 581 kts | 83° |
| 2026-05-04 14:51 | 41.07443 | 177.79398 | 35030 ft | 582 kts | 83° |
| 2026-05-04 14:51 | 41.07179 | 177.90124 | 35026 ft | 582 kts | 83° |
| 2026-05-04 14:52 | 41.06905 | 178.00859 | 35030 ft | 583 kts | 83° |
| 2026-05-04 14:52 | 41.06622 | 178.11521 | 35049 ft | 583 kts | 83° |
| 2026-05-04 14:53 | 41.06327 | 178.22277 | 35023 ft | 584 kts | 83° |
| 2026-05-04 14:53 | 41.06022 | 178.33038 | 35019 ft | 585 kts | 84° |
| 2026-05-04 14:54 | 41.05706 | 178.43804 | 35019 ft | 585 kts | 84° |
| 2026-05-04 14:54 | 41.05381 | 178.54573 | 35029 ft | 586 kts | 84° |
| 2026-05-04 14:55 | 41.05045 | 178.65381 | 35020 ft | 587 kts | 84° |
| 2026-05-04 14:55 | 41.04698 | 178.76181 | 35015 ft | 587 kts | 84° |
| 2026-05-04 14:56 | 41.04340 | 178.86985 | 35046 ft | 587 kts | 84° |
| 2026-05-04 14:56 | 41.03973 | 178.97804 | 35008 ft | 588 kts | 84° |
| 2026-05-04 14:57 | 41.03596 | 179.08624 | 34996 ft | 588 kts | 84° |
| 2026-05-04 14:57 | 41.03207 | 179.19450 | 35008 ft | 588 kts | 84° |
| 2026-05-04 14:58 | 41.02809 | 179.30279 | 35020 ft | 589 kts | 84° |
| 2026-05-04 14:58 | 41.02400 | 179.41121 | 35006 ft | 590 kts | 84° |
| 2026-05-04 14:59 | 41.01983 | 179.51904 | 35001 ft | 590 kts | 84° |
| 2026-05-04 15:00 | 41.01331 | 179.68256 | 35000 ft | 591 kts | 84° |
| 2026-05-04 15:00 | 41.00885 | 179.79131 | 34998 ft | 591 kts | 84° |
| 2026-05-04 15:01 | 41.00201 | 179.95368 | 34988 ft | 592 kts | 84° |
| 2026-05-04 15:01 | 41.00132 | -179.93844 | 34990 ft | 581 kts | 76° |
| 2026-05-04 15:02 | 41.00626 | -179.83176 | 34995 ft | 580 kts | 75° |
| 2026-05-04 15:02 | 41.01142 | -179.72511 | 34991 ft | 581 kts | 76° |
| 2026-05-04 15:03 | 41.01602 | -179.61824 | 34989 ft | 582 kts | 76° |
| 2026-05-04 15:03 | 41.02022 | -179.51127 | 34986 ft | 582 kts | 76° |
| 2026-05-04 15:04 | 41.02427 | -179.40421 | 34984 ft | 582 kts | 77° |
| 2026-05-04 15:04 | 41.02827 | -179.29708 | 34980 ft | 582 kts | 77° |
| 2026-05-04 15:05 | 41.03221 | -179.18998 | 34993 ft | 583 kts | 77° |
| 2026-05-04 15:05 | 41.03607 | -179.08268 | 34980 ft | 584 kts | 77° |
| 2026-05-04 15:06 | 41.03982 | -178.97523 | 34978 ft | 584 kts | 77° |
| 2026-05-04 15:07 | 41.04523 | -178.81469 | 34999 ft | 585 kts | 77° |
| 2026-05-04 15:07 | 41.04876 | -178.70684 | 34978 ft | 587 kts | 77° |
| 2026-05-04 15:08 | 41.05218 | -178.59871 | 34974 ft | 588 kts | 77° |
| 2026-05-04 15:08 | 41.05549 | -178.49050 | 34972 ft | 589 kts | 77° |
| 2026-05-04 15:09 | 41.05872 | -178.38192 | 34965 ft | 591 kts | 77° |
| 2026-05-04 15:09 | 41.06186 | -178.27308 | 34972 ft | 592 kts | 77° |
| 2026-05-04 15:10 | 41.06637 | -178.10945 | 34966 ft | 593 kts | 78° |
| 2026-05-04 15:11 | 41.07066 | -177.94543 | 34958 ft | 594 kts | 78° |
| 2026-05-04 15:11 | 41.07340 | -177.83594 | 34956 ft | 594 kts | 78° |
| 2026-05-04 15:12 | 41.07602 | -177.72648 | 34954 ft | 594 kts | 78° |
| 2026-05-04 15:12 | 41.07857 | -177.61691 | 34956 ft | 596 kts | 78° |
| 2026-05-04 15:13 | 41.08100 | -177.50717 | 34955 ft | 596 kts | 79° |
| 2026-05-04 15:13 | 41.08333 | -177.39738 | 34950 ft | 596 kts | 79° |
| 2026-05-04 15:14 | 41.08555 | -177.28764 | 34976 ft | 596 kts | 79° |
| 2026-05-04 15:14 | 41.08767 | -177.17774 | 34949 ft | 596 kts | 79° |
| 2026-05-04 15:15 | 41.08968 | -177.06794 | 34947 ft | 596 kts | 79° |
| 2026-05-04 15:15 | 41.09157 | -176.95897 | 34947 ft | 595 kts | 79° |
| 2026-05-04 15:16 | 41.09425 | -176.79383 | 34937 ft | 595 kts | 80° |
| 2026-05-04 15:17 | 41.09668 | -176.62960 | 34933 ft | 594 kts | 80° |
| 2026-05-04 15:17 | 41.09888 | -176.46632 | 34949 ft | 593 kts | 81° |
| 2026-05-04 15:18 | 41.10020 | -176.35711 | 34939 ft | 592 kts | 81° |
| 2026-05-04 15:19 | 41.10182 | -176.21117 | 34939 ft | 591 kts | 81° |
| 2026-05-04 15:19 | 41.10342 | -176.04783 | 34935 ft | 590 kts | 82° |
| 2026-05-04 15:20 | 41.10435 | -175.93986 | 34931 ft | 589 kts | 82° |
| 2026-05-04 15:20 | 41.10517 | -175.83130 | 34931 ft | 589 kts | 82° |
| 2026-05-04 15:21 | 41.10591 | -175.72284 | 34931 ft | 588 kts | 82° |
| 2026-05-04 15:22 | 41.10682 | -175.56011 | 34933 ft | 588 kts | 82° |
| 2026-05-04 15:22 | 41.10750 | -175.39732 | 34948 ft | 589 kts | 83° |
| 2026-05-04 15:23 | 41.10782 | -175.28871 | 34931 ft | 589 kts | 83° |
| 2026-05-04 15:23 | 41.10803 | -175.18027 | 34928 ft | 588 kts | 83° |
| 2026-05-04 15:24 | 41.10816 | -174.96387 | 34934 ft | 586 kts | 84° |
| 2026-05-04 15:25 | 41.10807 | -174.85607 | 34927 ft | 584 kts | 84° |
| 2026-05-04 15:26 | 41.10775 | -174.69496 | 34928 ft | 581 kts | 84° |
| 2026-05-04 15:26 | 41.10723 | -174.53518 | 34936 ft | 579 kts | 84° |
| 2026-05-04 15:27 | 41.10648 | -174.37521 | 34929 ft | 578 kts | 84° |
| 2026-05-04 15:28 | 41.10551 | -174.21532 | 34948 ft | 578 kts | 85° |
| 2026-05-04 15:29 | 41.10431 | -174.05573 | 34931 ft | 577 kts | 85° |
| 2026-05-04 15:30 | 41.10069 | -173.68492 | 34931 ft | 572 kts | 86° |
| 2026-05-04 15:31 | 41.09878 | -173.52696 | 34935 ft | 570 kts | 86° |
| 2026-05-04 15:32 | 41.09515 | -173.26498 | 34929 ft | 567 kts | 87° |
| 2026-05-04 15:34 | 41.09096 | -173.00453 | 34927 ft | 566 kts | 88° |
| 2026-05-04 15:34 | 41.08815 | -172.84826 | 34938 ft | 565 kts | 88° |
| 2026-05-04 15:35 | 41.08515 | -172.69213 | 34931 ft | 565 kts | 89° |
| 2026-05-04 15:36 | 41.08193 | -172.53613 | 34930 ft | 564 kts | 89° |
| 2026-05-04 15:36 | 41.07966 | -172.43224 | 34926 ft | 564 kts | 89° |
| 2026-05-04 15:37 | 41.07731 | -172.32833 | 34926 ft | 564 kts | 89° |
| 2026-05-04 15:37 | 41.07487 | -172.22454 | 34932 ft | 563 kts | 89° |
| 2026-05-04 15:38 | 41.07233 | -172.12075 | 34924 ft | 563 kts | 89° |
| 2026-05-04 15:38 | 41.06970 | -172.01702 | 34925 ft | 563 kts | 89° |
| 2026-05-04 15:39 | 41.06697 | -171.91319 | 34953 ft | 564 kts | 90° |
| 2026-05-04 15:40 | 41.06271 | -171.75776 | 34918 ft | 562 kts | 90° |
| 2026-05-04 15:40 | 41.05977 | -171.65453 | 34902 ft | 560 kts | 90° |
| 2026-05-04 15:41 | 41.05675 | -171.55159 | 34911 ft | 558 kts | 90° |
| 2026-05-04 15:41 | 41.05364 | -171.44896 | 34915 ft | 557 kts | 91° |
| 2026-05-04 15:42 | 41.05044 | -171.34649 | 34920 ft | 557 kts | 91° |
| 2026-05-04 15:42 | 41.04716 | -171.24402 | 34924 ft | 557 kts | 91° |
| 2026-05-04 15:43 | 41.04379 | -171.14162 | 34923 ft | 556 kts | 91° |
| 2026-05-04 15:43 | 41.04032 | -171.03922 | 34918 ft | 556 kts | 91° |
| 2026-05-04 15:44 | 41.03676 | -170.93681 | 34921 ft | 556 kts | 91° |
| 2026-05-04 15:44 | 41.03312 | -170.83446 | 34918 ft | 556 kts | 92° |
| 2026-05-04 15:45 | 41.02938 | -170.73220 | 34931 ft | 556 kts | 92° |
| 2026-05-04 15:45 | 41.02556 | -170.62997 | 34931 ft | 556 kts | 92° |
| 2026-05-04 15:46 | 41.02165 | -170.52774 | 34938 ft | 556 kts | 92° |
| 2026-05-04 15:46 | 41.01767 | -170.42620 | 34946 ft | 556 kts | 92° |
| 2026-05-04 15:47 | 41.01358 | -170.32412 | 34943 ft | 555 kts | 92° |
| 2026-05-04 15:47 | 41.00940 | -170.22204 | 34952 ft | 555 kts | 92° |
| 2026-05-04 15:48 | 41.00514 | -170.12002 | 34949 ft | 555 kts | 93° |
| 2026-05-04 15:48 | 41.00044 | -169.96702 | 34955 ft | 554 kts | 86° |
| 2026-05-04 15:49 | 41.00481 | -169.86538 | 34971 ft | 554 kts | 85° |
| 2026-05-04 15:49 | 41.00973 | -169.76364 | 34968 ft | 554 kts | 85° |
| 2026-05-04 15:50 | 41.01422 | -169.66173 | 34975 ft | 554 kts | 85° |
| 2026-05-04 15:50 | 41.01831 | -169.55982 | 34981 ft | 554 kts | 86° |
| 2026-05-04 15:51 | 41.02223 | -169.45787 | 34980 ft | 555 kts | 86° |
| 2026-05-04 15:51 | 41.02609 | -169.35587 | 34991 ft | 554 kts | 86° |
| 2026-05-04 15:52 | 41.02989 | -169.25385 | 34994 ft | 554 kts | 86° |
| 2026-05-04 15:52 | 41.03360 | -169.15187 | 34989 ft | 554 kts | 86° |
| 2026-05-04 15:53 | 41.03723 | -169.04992 | 34987 ft | 554 kts | 86° |
| 2026-05-04 15:53 | 41.04075 | -168.94819 | 35010 ft | 552 kts | 86° |
| 2026-05-04 15:54 | 41.04416 | -168.84690 | 34997 ft | 549 kts | 86° |
| 2026-05-04 15:54 | 41.04747 | -168.74613 | 35016 ft | 546 kts | 87° |
| 2026-05-04 15:55 | 41.05069 | -168.64580 | 35025 ft | 544 kts | 87° |
| 2026-05-04 15:55 | 41.05378 | -168.54644 | 35015 ft | 543 kts | 87° |
| 2026-05-04 15:56 | 41.05680 | -168.44653 | 35022 ft | 543 kts | 87° |
| 2026-05-04 15:56 | 41.05974 | -168.34661 | 35031 ft | 543 kts | 88° |
| 2026-05-04 15:57 | 41.06260 | -168.24645 | 35042 ft | 544 kts | 88° |
| 2026-05-04 15:57 | 41.06537 | -168.14614 | 35033 ft | 545 kts | 88° |
| 2026-05-04 15:58 | 41.06807 | -168.04562 | 35034 ft | 546 kts | 88° |
| 2026-05-04 15:58 | 41.07067 | -167.94502 | 35037 ft | 547 kts | 88° |
| 2026-05-04 15:59 | 41.07320 | -167.84420 | 35041 ft | 548 kts | 88° |
| 2026-05-04 15:59 | 41.07564 | -167.74323 | 35063 ft | 548 kts | 88° |
| 2026-05-04 16:00 | 41.07799 | -167.64214 | 35070 ft | 549 kts | 88° |
| 2026-05-04 16:00 | 41.08026 | -167.54099 | 35067 ft | 549 kts | 88° |
| 2026-05-04 16:01 | 41.08244 | -167.43977 | 35071 ft | 549 kts | 88° |
| 2026-05-04 16:01 | 41.08453 | -167.33852 | 35076 ft | 550 kts | 88° |
| 2026-05-04 16:02 | 41.08654 | -167.23736 | 35066 ft | 548 kts | 88° |
| 2026-05-04 16:03 | 41.08935 | -167.08672 | 35060 ft | 542 kts | 88° |
| 2026-05-04 16:03 | 41.09110 | -166.98705 | 35069 ft | 540 kts | 88° |
| 2026-05-04 16:04 | 41.09276 | -166.88843 | 35088 ft | 538 kts | 89° |
| 2026-05-04 16:04 | 41.09509 | -166.73995 | 35085 ft | 536 kts | 89° |
| 2026-05-04 16:05 | 41.09653 | -166.64121 | 35088 ft | 535 kts | 89° |
| 2026-05-04 16:06 | 41.09854 | -166.49322 | 35080 ft | 536 kts | 89° |
| 2026-05-04 16:07 | 41.10074 | -166.31178 | 35098 ft | 536 kts | 89° |
| 2026-05-04 16:08 | 41.10297 | -166.09800 | 35090 ft | 537 kts | 89° |
| 2026-05-04 16:09 | 41.10493 | -165.86697 | 35112 ft | 538 kts | 90° |
| 2026-05-04 16:10 | 41.10624 | -165.66816 | 35675 ft | 538 kts | 89° |
| 2026-05-04 16:11 | 41.10701 | -165.52034 | 36806 ft | 532 kts | 89° |
| 2026-05-04 16:11 | 41.10722 | -165.47131 | 37048 ft | 532 kts | 89° |
| 2026-05-04 16:12 | 41.10804 | -165.17706 | 37130 ft | 528 kts | 90° |
| 2026-05-04 16:13 | 41.10818 | -164.98275 | 37143 ft | 526 kts | 90° |
| 2026-05-04 16:14 | 41.10798 | -164.78839 | 37138 ft | 528 kts | 90° |
| 2026-05-04 16:16 | 41.10728 | -164.54446 | 37143 ft | 530 kts | 90° |
| 2026-05-04 16:17 | 41.10606 | -164.29965 | 37148 ft | 531 kts | 90° |
| 2026-05-04 16:18 | 41.10471 | -164.10381 | 37153 ft | 531 kts | 91° |
| 2026-05-04 16:19 | 41.10257 | -163.86070 | 37168 ft | 528 kts | 91° |
| 2026-05-04 16:20 | 41.09992 | -163.61763 | 37155 ft | 527 kts | 91° |
| 2026-05-04 16:22 | 41.09675 | -163.37445 | 37162 ft | 528 kts | 91° |
| 2026-05-04 16:23 | 41.09227 | -163.08180 | 37176 ft | 530 kts | 92° |
| 2026-05-04 16:25 | 41.08703 | -162.78855 | 37188 ft | 530 kts | 92° |
| 2026-05-04 16:26 | 41.08000 | -162.44740 | 37190 ft | 529 kts | 92° |
| 2026-05-04 16:28 | 41.07438 | -162.20437 | 37186 ft | 527 kts | 92° |
| 2026-05-04 16:29 | 41.06568 | -161.86510 | 37190 ft | 526 kts | 93° |
| 2026-05-04 16:31 | 41.05885 | -161.62268 | 37198 ft | 527 kts | 93° |
| 2026-05-04 16:32 | 41.04996 | -161.33141 | 37200 ft | 527 kts | 94° |
| 2026-05-04 16:33 | 41.04364 | -161.13736 | 37217 ft | 527 kts | 94° |
| 2026-05-04 16:34 | 41.03871 | -160.99263 | 37205 ft | 526 kts | 94° |
| 2026-05-04 16:35 | 41.02829 | -160.70280 | 37208 ft | 524 kts | 94° |
| 2026-05-04 16:36 | 41.02282 | -160.55824 | 37210 ft | 524 kts | 94° |
| 2026-05-04 16:37 | 41.01717 | -160.41368 | 37206 ft | 524 kts | 94° |
| 2026-05-04 16:38 | 41.00935 | -160.22079 | 37210 ft | 525 kts | 94° |
| 2026-05-04 16:39 | 41.00022 | -159.97939 | 37210 ft | 526 kts | 89° |
| 2026-05-04 16:40 | 41.00874 | -159.78591 | 37205 ft | 527 kts | 87° |
| 2026-05-04 16:41 | 41.01890 | -159.54387 | 37211 ft | 526 kts | 88° |
| 2026-05-04 16:43 | 41.02806 | -159.30328 | 37215 ft | 524 kts | 88° |
| 2026-05-04 16:43 | 41.03336 | -159.15867 | 37198 ft | 524 kts | 88° |
| 2026-05-04 16:45 | 41.04341 | -158.86947 | 37236 ft | 525 kts | 88° |
| 2026-05-04 16:46 | 41.05124 | -158.62808 | 37222 ft | 524 kts | 89° |
| 2026-05-04 16:47 | 41.05714 | -158.43523 | 37224 ft | 523 kts | 89° |
| 2026-05-04 16:48 | 41.06271 | -158.24262 | 37229 ft | 523 kts | 89° |
| 2026-05-04 16:49 | 41.06795 | -158.05017 | 37226 ft | 522 kts | 89° |
| 2026-05-04 16:50 | 41.07286 | -157.85768 | 37228 ft | 523 kts | 89° |
| 2026-05-04 16:51 | 41.07634 | -157.71325 | 37225 ft | 523 kts | 89° |
| 2026-05-04 16:52 | 41.08071 | -157.52052 | 37211 ft | 523 kts | 89° |
| 2026-05-04 16:53 | 41.08377 | -157.37605 | 37229 ft | 523 kts | 89° |
| 2026-05-04 16:54 | 41.08757 | -157.18346 | 37217 ft | 522 kts | 90° |
| 2026-05-04 16:55 | 41.09265 | -156.89548 | 37228 ft | 522 kts | 90° |
| 2026-05-04 16:56 | 41.09633 | -156.65562 | 37234 ft | 520 kts | 90° |
| 2026-05-04 16:57 | 41.09810 | -156.52733 | 37226 ft | 520 kts | 90° |
| 2026-05-04 16:58 | 41.10046 | -156.33642 | 37237 ft | 520 kts | 90° |
| 2026-05-04 17:00 | 41.10342 | -156.04886 | 37235 ft | 520 kts | 91° |
| 2026-05-04 17:01 | 41.10535 | -155.80934 | 37238 ft | 519 kts | 91° |
| 2026-05-04 17:02 | 41.10653 | -155.61799 | 37237 ft | 519 kts | 91° |
| 2026-05-04 17:03 | 41.10721 | -155.47454 | 37241 ft | 518 kts | 91° |
| 2026-05-04 17:03 | 41.10771 | -155.33115 | 37251 ft | 518 kts | 91° |
| 2026-05-04 17:04 | 41.10810 | -155.14004 | 37239 ft | 518 kts | 91° |
| 2026-05-04 17:05 | 41.10817 | -154.94917 | 37226 ft | 517 kts | 91° |
| 2026-05-04 17:06 | 41.10802 | -154.80623 | 37242 ft | 516 kts | 91° |
| 2026-05-04 17:07 | 41.10773 | -154.67949 | 37244 ft | 516 kts | 91° |
| 2026-05-04 17:07 | 41.10737 | -154.56822 | 37245 ft | 516 kts | 91° |
| 2026-05-04 17:08 | 41.10675 | -154.42539 | 37251 ft | 517 kts | 92° |
| 2026-05-04 17:09 | 41.10624 | -154.33017 | 37229 ft | 516 kts | 92° |
| 2026-05-04 17:09 | 41.10565 | -154.23501 | 37248 ft | 516 kts | 92° |
| 2026-05-04 17:10 | 41.10384 | -153.99809 | 37240 ft | 515 kts | 92° |
| 2026-05-04 17:11 | 41.10297 | -153.90315 | 37250 ft | 515 kts | 92° |
| 2026-05-04 17:12 | 41.10154 | -153.76081 | 37246 ft | 515 kts | 92° |
| 2026-05-04 17:13 | 41.09875 | -153.52366 | 37249 ft | 515 kts | 92° |
| 2026-05-04 17:14 | 41.09618 | -153.33404 | 37252 ft | 514 kts | 92° |
| 2026-05-04 17:15 | 41.09404 | -153.19208 | 37250 ft | 513 kts | 92° |
| 2026-05-04 17:16 | 41.09094 | -153.00312 | 37253 ft | 512 kts | 93° |
| 2026-05-04 17:17 | 41.08753 | -152.81464 | 37255 ft | 511 kts | 93° |
| 2026-05-04 17:18 | 41.08382 | -152.62645 | 37254 ft | 510 kts | 94° |
| 2026-05-04 17:19 | 41.07981 | -152.43879 | 37256 ft | 508 kts | 94° |
| 2026-05-04 17:20 | 41.07552 | -152.25170 | 37258 ft | 508 kts | 94° |
| 2026-05-04 17:20 | 41.07210 | -152.11164 | 37262 ft | 506 kts | 94° |
| 2026-05-04 17:21 | 41.06731 | -151.92584 | 37265 ft | 506 kts | 95° |
| 2026-05-04 17:22 | 41.06480 | -151.83277 | 37261 ft | 505 kts | 95° |
| 2026-05-04 17:23 | 41.05955 | -151.64699 | 37262 ft | 504 kts | 95° |
| 2026-05-04 17:24 | 41.05543 | -151.50784 | 37267 ft | 504 kts | 95° |
| 2026-05-04 17:25 | 41.04968 | -151.32236 | 37244 ft | 504 kts | 96° |
| 2026-05-04 17:26 | 41.04363 | -151.13705 | 37272 ft | 503 kts | 96° |
| 2026-05-04 17:27 | 41.03567 | -150.90579 | 37267 ft | 502 kts | 96° |
| 2026-05-04 17:28 | 41.02898 | -150.72133 | 37255 ft | 501 kts | 96° |
| 2026-05-04 17:29 | 41.01845 | -150.44610 | 37244 ft | 499 kts | 97° |
| 2026-05-04 17:31 | 41.00920 | -150.21712 | 37271 ft | 497 kts | 97° |
| 2026-05-04 17:32 | 40.99951 | -149.98887 | 37270 ft | 496 kts | 98° |
| 2026-05-04 17:33 | 40.98926 | -149.80709 | 37278 ft | 495 kts | 99° |
| 2026-05-04 17:34 | 40.97850 | -149.62553 | 37276 ft | 495 kts | 99° |
| 2026-05-04 17:35 | 40.96492 | -149.39878 | 37281 ft | 494 kts | 99° |
| 2026-05-04 17:36 | 40.95937 | -149.30816 | 37282 ft | 494 kts | 99° |
| 2026-05-04 17:36 | 40.95374 | -149.21766 | 37279 ft | 493 kts | 99° |
| 2026-05-04 17:37 | 40.94805 | -149.12728 | 37280 ft | 493 kts | 99° |
| 2026-05-04 17:37 | 40.94229 | -149.03687 | 37280 ft | 493 kts | 99° |
| 2026-05-04 17:38 | 40.93651 | -148.94728 | 37275 ft | 492 kts | 100° |
| 2026-05-04 17:38 | 40.93063 | -148.85723 | 37283 ft | 491 kts | 100° |
| 2026-05-04 17:39 | 40.92170 | -148.72249 | 37286 ft | 490 kts | 100° |
| 2026-05-04 17:39 | 40.91567 | -148.63288 | 37260 ft | 489 kts | 101° |
| 2026-05-04 17:40 | 40.90960 | -148.54355 | 37282 ft | 487 kts | 101° |
| 2026-05-04 17:40 | 40.90346 | -148.45441 | 37293 ft | 487 kts | 101° |
| 2026-05-04 17:41 | 40.89725 | -148.36539 | 37296 ft | 486 kts | 101° |
| 2026-05-04 17:41 | 40.89099 | -148.27644 | 37287 ft | 486 kts | 101° |
| 2026-05-04 17:42 | 40.88466 | -148.18755 | 37288 ft | 486 kts | 101° |
| 2026-05-04 17:42 | 40.87825 | -148.09856 | 37283 ft | 486 kts | 101° |
| 2026-05-04 17:43 | 40.87178 | -148.00960 | 37295 ft | 487 kts | 101° |
| 2026-05-04 17:43 | 40.86524 | -147.92061 | 37271 ft | 486 kts | 102° |
| 2026-05-04 17:44 | 40.85977 | -147.84686 | 37284 ft | 485 kts | 102° |
| 2026-05-04 17:44 | 40.85314 | -147.75835 | 37287 ft | 484 kts | 102° |
| 2026-05-04 17:45 | 40.84645 | -147.67010 | 37287 ft | 483 kts | 102° |
| 2026-05-04 17:45 | 40.83970 | -147.58195 | 37252 ft | 482 kts | 102° |
| 2026-05-04 17:46 | 40.83291 | -147.49401 | 37279 ft | 481 kts | 102° |
| 2026-05-04 17:46 | 40.82606 | -147.40634 | 37291 ft | 480 kts | 102° |
| 2026-05-04 17:47 | 40.81914 | -147.31865 | 37289 ft | 480 kts | 102° |
| 2026-05-04 17:47 | 40.81217 | -147.23108 | 37263 ft | 480 kts | 103° |
| 2026-05-04 17:48 | 40.80513 | -147.14356 | 37275 ft | 479 kts | 103° |
| 2026-05-04 17:48 | 40.79804 | -147.05620 | 37278 ft | 479 kts | 103° |
| 2026-05-04 17:49 | 40.79087 | -146.96877 | 37294 ft | 479 kts | 103° |
| 2026-05-04 17:49 | 40.78365 | -146.88145 | 37261 ft | 479 kts | 103° |
| 2026-05-04 17:50 | 40.77637 | -146.79417 | 37286 ft | 478 kts | 103° |
| 2026-05-04 17:50 | 40.76902 | -146.70699 | 37289 ft | 478 kts | 103° |
| 2026-05-04 17:51 | 40.76161 | -146.61986 | 37291 ft | 478 kts | 103° |
| 2026-05-04 17:51 | 40.75414 | -146.53273 | 37291 ft | 478 kts | 103° |
| 2026-05-04 17:52 | 40.74661 | -146.44577 | 37286 ft | 477 kts | 103° |
| 2026-05-04 17:52 | 40.73902 | -146.35888 | 37271 ft | 477 kts | 103° |
| 2026-05-04 17:53 | 40.73136 | -146.27199 | 37286 ft | 477 kts | 103° |
| 2026-05-04 17:53 | 40.72368 | -146.18562 | 37294 ft | 478 kts | 103° |
| 2026-05-04 17:54 | 40.71583 | -146.09807 | 37288 ft | 478 kts | 103° |
| 2026-05-04 17:54 | 40.70794 | -146.01086 | 37294 ft | 480 kts | 103° |
| 2026-05-04 17:55 | 40.70003 | -145.92409 | 37290 ft | 481 kts | 103° |
| 2026-05-04 17:55 | 40.69198 | -145.83652 | 37289 ft | 482 kts | 103° |
| 2026-05-04 17:56 | 40.68384 | -145.74885 | 37287 ft | 482 kts | 103° |
| 2026-05-04 17:56 | 40.67564 | -145.66113 | 37292 ft | 483 kts | 103° |
| 2026-05-04 17:57 | 40.66736 | -145.57326 | 37292 ft | 484 kts | 103° |
| 2026-05-04 17:57 | 40.65900 | -145.48535 | 37288 ft | 484 kts | 103° |
| 2026-05-04 17:58 | 40.65057 | -145.39741 | 37288 ft | 484 kts | 103° |
| 2026-05-04 17:58 | 40.64207 | -145.30948 | 37294 ft | 485 kts | 103° |
| 2026-05-04 17:59 | 40.63350 | -145.22145 | 37285 ft | 485 kts | 103° |
| 2026-05-04 18:00 | 40.62049 | -145.08931 | 37271 ft | 485 kts | 103° |
| 2026-05-04 18:00 | 40.61175 | -145.00135 | 37288 ft | 485 kts | 103° |
| 2026-05-04 18:01 | 40.60294 | -144.91339 | 37290 ft | 485 kts | 103° |
| 2026-05-04 18:01 | 40.59406 | -144.82543 | 37290 ft | 485 kts | 103° |
| 2026-05-04 18:02 | 40.58061 | -144.69353 | 37281 ft | 485 kts | 103° |
| 2026-05-04 18:02 | 40.57157 | -144.60567 | 37291 ft | 484 kts | 103° |
| 2026-05-04 18:03 | 40.56247 | -144.51795 | 37291 ft | 484 kts | 103° |
| 2026-05-04 18:03 | 40.55331 | -144.43025 | 37291 ft | 484 kts | 103° |
| 2026-05-04 18:04 | 40.54408 | -144.34265 | 37282 ft | 483 kts | 103° |
| 2026-05-04 18:05 | 40.53014 | -144.21141 | 37286 ft | 483 kts | 103° |
| 2026-05-04 18:05 | 40.52082 | -144.12457 | 37286 ft | 483 kts | 103° |
| 2026-05-04 18:06 | 40.50663 | -143.99341 | 37276 ft | 483 kts | 103° |
| 2026-05-04 18:06 | 40.49709 | -143.90605 | 37278 ft | 483 kts | 103° |
| 2026-05-04 18:07 | 40.48747 | -143.81861 | 37287 ft | 484 kts | 103° |
| 2026-05-04 18:07 | 40.47778 | -143.73113 | 37287 ft | 484 kts | 103° |
| 2026-05-04 18:08 | 40.46801 | -143.64360 | 37274 ft | 484 kts | 103° |
| 2026-05-04 18:08 | 40.45818 | -143.55608 | 37283 ft | 485 kts | 103° |
| 2026-05-04 18:09 | 40.43828 | -143.38080 | 37278 ft | 485 kts | 103° |
| 2026-05-04 18:10 | 40.42825 | -143.29328 | 37275 ft | 485 kts | 103° |
| 2026-05-04 18:10 | 40.41815 | -143.20581 | 37277 ft | 484 kts | 103° |
| 2026-05-04 18:11 | 40.40799 | -143.11849 | 37277 ft | 484 kts | 103° |
| 2026-05-04 18:11 | 40.39778 | -143.03125 | 37254 ft | 484 kts | 103° |
| 2026-05-04 18:12 | 40.38751 | -142.94410 | 37271 ft | 483 kts | 103° |
| 2026-05-04 18:12 | 40.37719 | -142.85713 | 37275 ft | 483 kts | 103° |
| 2026-05-04 18:13 | 40.36682 | -142.77024 | 37272 ft | 482 kts | 103° |
| 2026-05-04 18:14 | 40.35117 | -142.64028 | 37265 ft | 480 kts | 103° |
| 2026-05-04 18:14 | 40.34067 | -142.55387 | 37278 ft | 480 kts | 103° |
| 2026-05-04 18:15 | 40.31949 | -142.38104 | 37284 ft | 481 kts | 103° |
| 2026-05-04 18:16 | 40.30878 | -142.29452 | 37274 ft | 481 kts | 103° |
| 2026-05-04 18:16 | 40.29809 | -142.20864 | 37287 ft | 481 kts | 103° |
| 2026-05-04 18:17 | 40.28179 | -142.07881 | 37283 ft | 482 kts | 103° |
| 2026-05-04 18:18 | 40.26534 | -141.94896 | 37272 ft | 482 kts | 103° |
| 2026-05-04 18:18 | 40.25430 | -141.86240 | 37286 ft | 482 kts | 103° |
| 2026-05-04 18:19 | 40.23759 | -141.73257 | 37284 ft | 483 kts | 103° |
| 2026-05-04 18:19 | 40.22637 | -141.64597 | 37271 ft | 483 kts | 103° |
| 2026-05-04 18:20 | 40.21506 | -141.55930 | 37285 ft | 483 kts | 103° |
| 2026-05-04 18:20 | 40.20371 | -141.47274 | 37286 ft | 483 kts | 103° |
| 2026-05-04 18:21 | 40.19228 | -141.38614 | 37287 ft | 483 kts | 103° |
| 2026-05-04 18:21 | 40.18078 | -141.29952 | 37288 ft | 483 kts | 103° |
| 2026-05-04 18:22 | 40.16921 | -141.21292 | 37289 ft | 483 kts | 103° |
| 2026-05-04 18:22 | 40.15759 | -141.12642 | 37288 ft | 483 kts | 103° |
| 2026-05-04 18:23 | 40.14590 | -141.03992 | 37288 ft | 483 kts | 103° |
| 2026-05-04 18:23 | 40.13414 | -140.95347 | 37282 ft | 483 kts | 103° |
| 2026-05-04 18:24 | 40.12233 | -140.86710 | 37291 ft | 483 kts | 103° |
| 2026-05-04 18:24 | 40.11045 | -140.78074 | 37288 ft | 483 kts | 102° |
| 2026-05-04 18:25 | 40.09852 | -140.69441 | 37285 ft | 483 kts | 102° |
| 2026-05-04 18:25 | 40.08652 | -140.60815 | 37292 ft | 483 kts | 102° |
| 2026-05-04 18:26 | 40.07445 | -140.52188 | 37297 ft | 483 kts | 102° |
| 2026-05-04 18:26 | 40.06232 | -140.43565 | 37286 ft | 483 kts | 102° |
| 2026-05-04 18:27 | 40.05014 | -140.34953 | 37280 ft | 483 kts | 102° |
| 2026-05-04 18:27 | 40.03787 | -140.26336 | 37285 ft | 483 kts | 102° |
| 2026-05-04 18:28 | 40.02557 | -140.17731 | 37292 ft | 482 kts | 102° |
| 2026-05-04 18:28 | 40.01328 | -140.09183 | 37280 ft | 482 kts | 102° |
| 2026-05-04 18:29 | 40.00085 | -140.00586 | 37296 ft | 482 kts | 102° |
| 2026-05-04 18:29 | 39.98800 | -139.92009 | 37284 ft | 482 kts | 102° |
| 2026-05-04 18:30 | 39.96810 | -139.79164 | 37283 ft | 482 kts | 103° |
| 2026-05-04 18:31 | 39.95481 | -139.70609 | 37290 ft | 482 kts | 103° |
| 2026-05-04 18:31 | 39.94374 | -139.63490 | 37270 ft | 482 kts | 103° |
| 2026-05-04 18:32 | 39.93038 | -139.54933 | 37286 ft | 482 kts | 102° |
| 2026-05-04 18:32 | 39.91695 | -139.46368 | 37280 ft | 483 kts | 102° |
| 2026-05-04 18:33 | 39.90345 | -139.37805 | 37281 ft | 483 kts | 102° |
| 2026-05-04 18:33 | 39.88989 | -139.29243 | 37278 ft | 483 kts | 102° |
| 2026-05-04 18:34 | 39.87623 | -139.20679 | 37282 ft | 483 kts | 101° |
| 2026-05-04 18:34 | 39.86254 | -139.12120 | 37278 ft | 483 kts | 101° |
| 2026-05-04 18:35 | 39.84880 | -139.03573 | 37281 ft | 482 kts | 101° |
| 2026-05-04 18:35 | 39.83498 | -138.95034 | 37276 ft | 482 kts | 100° |
| 2026-05-04 18:36 | 39.82114 | -138.86512 | 37279 ft | 481 kts | 101° |
| 2026-05-04 18:36 | 39.80724 | -138.78001 | 37272 ft | 481 kts | 100° |
| 2026-05-04 18:37 | 39.79329 | -138.69494 | 37277 ft | 481 kts | 101° |
| 2026-05-04 18:37 | 39.77929 | -138.61005 | 37276 ft | 480 kts | 100° |
| 2026-05-04 18:38 | 39.76524 | -138.52525 | 37271 ft | 480 kts | 100° |
| 2026-05-04 18:38 | 39.75113 | -138.44043 | 37277 ft | 480 kts | 100° |
| 2026-05-04 18:39 | 39.73696 | -138.35568 | 37275 ft | 479 kts | 100° |
| 2026-05-04 18:39 | 39.72274 | -138.27110 | 37264 ft | 479 kts | 100° |
| 2026-05-04 18:40 | 39.70848 | -138.18666 | 37269 ft | 479 kts | 100° |
| 2026-05-04 18:40 | 39.69417 | -138.10223 | 37270 ft | 478 kts | 100° |
| 2026-05-04 18:41 | 39.67980 | -138.01795 | 37269 ft | 478 kts | 100° |
| 2026-05-04 18:41 | 39.66537 | -137.93365 | 37267 ft | 478 kts | 100° |
| 2026-05-04 18:42 | 39.65088 | -137.84941 | 37268 ft | 478 kts | 100° |
| 2026-05-04 18:42 | 39.63632 | -137.76516 | 37267 ft | 479 kts | 101° |
| 2026-05-04 18:43 | 39.62169 | -137.68090 | 37261 ft | 479 kts | 100° |
| 2026-05-04 18:43 | 39.60700 | -137.59667 | 37255 ft | 479 kts | 100° |
| 2026-05-04 18:44 | 39.59233 | -137.51290 | 37246 ft | 479 kts | 100° |
| 2026-05-04 18:44 | 39.57750 | -137.42868 | 37258 ft | 479 kts | 100° |
| 2026-05-04 18:45 | 39.56261 | -137.34444 | 37271 ft | 479 kts | 100° |
| 2026-05-04 18:45 | 39.54765 | -137.26022 | 37238 ft | 480 kts | 100° |
| 2026-05-04 18:46 | 39.53264 | -137.17607 | 37257 ft | 479 kts | 100° |
| 2026-05-04 18:46 | 39.51758 | -137.09200 | 37251 ft | 479 kts | 100° |
| 2026-05-04 18:47 | 39.50246 | -137.00798 | 37258 ft | 479 kts | 100° |
| 2026-05-04 18:47 | 39.48728 | -136.92407 | 37256 ft | 478 kts | 99° |
| 2026-05-04 18:48 | 39.47207 | -136.84034 | 37237 ft | 477 kts | 99° |
| 2026-05-04 18:48 | 39.45686 | -136.75688 | 37233 ft | 476 kts | 99° |
| 2026-05-04 18:49 | 39.44162 | -136.67371 | 37249 ft | 475 kts | 99° |
| 2026-05-04 18:49 | 39.42634 | -136.59061 | 37235 ft | 475 kts | 99° |
| 2026-05-04 18:50 | 39.41102 | -136.50767 | 37238 ft | 474 kts | 99° |
| 2026-05-04 18:50 | 39.39563 | -136.42470 | 37231 ft | 475 kts | 99° |
| 2026-05-04 18:51 | 39.38016 | -136.34172 | 37235 ft | 476 kts | 98° |
| 2026-05-04 18:51 | 39.36461 | -136.25857 | 37231 ft | 476 kts | 98° |
| 2026-05-04 18:52 | 39.34898 | -136.17538 | 37239 ft | 477 kts | 98° |
| 2026-05-04 18:52 | 39.33327 | -136.09218 | 37226 ft | 477 kts | 98° |
| 2026-05-04 18:53 | 39.31751 | -136.00901 | 37221 ft | 477 kts | 99° |
| 2026-05-04 18:53 | 39.30168 | -135.92582 | 37222 ft | 477 kts | 99° |
| 2026-05-04 18:54 | 39.28590 | -135.84326 | 37221 ft | 477 kts | 99° |
| 2026-05-04 18:54 | 39.26995 | -135.76015 | 37219 ft | 477 kts | 99° |
| 2026-05-04 18:55 | 39.25394 | -135.67709 | 37226 ft | 477 kts | 99° |
| 2026-05-04 18:55 | 39.22980 | -135.55245 | 37211 ft | 477 kts | 99° |
| 2026-05-04 18:56 | 39.21364 | -135.46946 | 37211 ft | 477 kts | 99° |
| 2026-05-04 18:56 | 39.19744 | -135.38654 | 37212 ft | 477 kts | 99° |
| 2026-05-04 18:57 | 39.18118 | -135.30377 | 37209 ft | 475 kts | 99° |
| 2026-05-04 18:57 | 39.16493 | -135.22134 | 37202 ft | 474 kts | 99° |
| 2026-05-04 18:58 | 39.14868 | -135.13923 | 37201 ft | 472 kts | 99° |
| 2026-05-04 18:58 | 39.13241 | -135.05730 | 37213 ft | 472 kts | 100° |
| 2026-05-04 18:59 | 39.11607 | -134.97538 | 37206 ft | 472 kts | 100° |
| 2026-05-04 18:59 | 39.09967 | -134.89345 | 37201 ft | 473 kts | 100° |
| 2026-05-04 19:00 | 39.08320 | -134.81152 | 37205 ft | 473 kts | 100° |
| 2026-05-04 19:00 | 39.06664 | -134.72952 | 37203 ft | 474 kts | 100° |
| 2026-05-04 19:01 | 39.05000 | -134.64740 | 37218 ft | 474 kts | 100° |
| 2026-05-04 19:01 | 39.03331 | -134.56537 | 37199 ft | 474 kts | 101° |
| 2026-05-04 19:02 | 39.01658 | -134.48345 | 37210 ft | 473 kts | 101° |
| 2026-05-04 19:02 | 38.99982 | -134.40171 | 37195 ft | 473 kts | 101° |
| 2026-05-04 19:03 | 38.98302 | -134.32008 | 37190 ft | 472 kts | 101° |
| 2026-05-04 19:03 | 38.96618 | -134.23862 | 37190 ft | 472 kts | 101° |
| 2026-05-04 19:04 | 38.94941 | -134.15772 | 37207 ft | 472 kts | 101° |
| 2026-05-04 19:04 | 38.93246 | -134.07631 | 37192 ft | 472 kts | 101° |
| 2026-05-04 19:05 | 38.91545 | -133.99493 | 37182 ft | 472 kts | 101° |
| 2026-05-04 19:05 | 38.89839 | -133.91360 | 37183 ft | 472 kts | 101° |
| 2026-05-04 19:06 | 38.88126 | -133.83227 | 37181 ft | 473 kts | 102° |
| 2026-05-04 19:06 | 38.86404 | -133.75083 | 37184 ft | 473 kts | 102° |
| 2026-05-04 19:07 | 38.84676 | -133.66937 | 37182 ft | 473 kts | 102° |
| 2026-05-04 19:07 | 38.82942 | -133.58794 | 37183 ft | 474 kts | 102° |
| 2026-05-04 19:08 | 38.81199 | -133.50643 | 37184 ft | 474 kts | 102° |
| 2026-05-04 19:08 | 38.79449 | -133.42485 | 37178 ft | 474 kts | 102° |
| 2026-05-04 19:09 | 38.77693 | -133.34334 | 37175 ft | 474 kts | 102° |
| 2026-05-04 19:09 | 38.75932 | -133.26190 | 37186 ft | 474 kts | 102° |
| 2026-05-04 19:10 | 38.74169 | -133.18062 | 37181 ft | 473 kts | 102° |
| 2026-05-04 19:10 | 38.72402 | -133.09950 | 37163 ft | 472 kts | 102° |
| 2026-05-04 19:11 | 38.70634 | -133.01866 | 37165 ft | 471 kts | 102° |
| 2026-05-04 19:11 | 38.68865 | -132.93802 | 37176 ft | 470 kts | 102° |
| 2026-05-04 19:12 | 38.66217 | -132.81783 | 37162 ft | 470 kts | 102° |
| 2026-05-04 19:13 | 38.64426 | -132.73688 | 37162 ft | 470 kts | 102° |
| 2026-05-04 19:13 | 38.62653 | -132.65708 | 37176 ft | 470 kts | 103° |
| 2026-05-04 19:14 | 38.60859 | -132.57660 | 37157 ft | 471 kts | 103° |
| 2026-05-04 19:14 | 38.59055 | -132.49600 | 37171 ft | 472 kts | 103° |
| 2026-05-04 19:15 | 38.57246 | -132.41543 | 37155 ft | 471 kts | 103° |
| 2026-05-04 19:15 | 38.55433 | -132.33500 | 37163 ft | 471 kts | 103° |
| 2026-05-04 19:16 | 38.53617 | -132.25467 | 37150 ft | 470 kts | 103° |
| 2026-05-04 19:16 | 38.51798 | -132.17455 | 37152 ft | 469 kts | 103° |
| 2026-05-04 19:17 | 38.49977 | -132.09459 | 37154 ft | 469 kts | 103° |
| 2026-05-04 19:17 | 38.48151 | -132.01464 | 37147 ft | 469 kts | 103° |
| 2026-05-04 19:18 | 38.46317 | -131.93470 | 37151 ft | 469 kts | 103° |
| 2026-05-04 19:18 | 38.44790 | -131.86831 | 37150 ft | 470 kts | 103° |
| 2026-05-04 19:19 | 38.42945 | -131.78835 | 37155 ft | 470 kts | 103° |
| 2026-05-04 19:19 | 38.40795 | -131.69553 | 37143 ft | 469 kts | 103° |
| 2026-05-04 19:20 | 38.39242 | -131.62873 | 37141 ft | 469 kts | 103° |
| 2026-05-04 19:20 | 38.37385 | -131.54911 | 37142 ft | 468 kts | 103° |
| 2026-05-04 19:21 | 38.35527 | -131.46968 | 37153 ft | 468 kts | 103° |
| 2026-05-04 19:21 | 38.33662 | -131.39022 | 37139 ft | 468 kts | 103° |
| 2026-05-04 19:22 | 38.31790 | -131.31074 | 37132 ft | 468 kts | 103° |
| 2026-05-04 19:22 | 38.29912 | -131.23129 | 37135 ft | 469 kts | 103° |
| 2026-05-04 19:23 | 38.28040 | -131.15235 | 37147 ft | 469 kts | 103° |
| 2026-05-04 19:23 | 38.26149 | -131.07290 | 37134 ft | 469 kts | 103° |
| 2026-05-04 19:24 | 38.24255 | -130.99355 | 37127 ft | 468 kts | 103° |
| 2026-05-04 19:24 | 38.22358 | -130.91439 | 37129 ft | 467 kts | 103° |
| 2026-05-04 19:25 | 38.20460 | -130.83542 | 37133 ft | 467 kts | 103° |
| 2026-05-04 19:25 | 38.18557 | -130.75650 | 37124 ft | 467 kts | 103° |
| 2026-05-04 19:26 | 38.16650 | -130.67763 | 37123 ft | 467 kts | 103° |
| 2026-05-04 19:26 | 38.14737 | -130.59883 | 37148 ft | 467 kts | 103° |
| 2026-05-04 19:27 | 38.12817 | -130.51996 | 37130 ft | 468 kts | 103° |
| 2026-05-04 19:27 | 38.10887 | -130.44097 | 37124 ft | 469 kts | 103° |
| 2026-05-04 19:28 | 38.08950 | -130.36192 | 37127 ft | 469 kts | 103° |
| 2026-05-04 19:28 | 38.07009 | -130.28302 | 37129 ft | 468 kts | 103° |
| 2026-05-04 19:29 | 38.05062 | -130.20409 | 37117 ft | 468 kts | 103° |
| 2026-05-04 19:29 | 38.03114 | -130.12536 | 37118 ft | 467 kts | 103° |
| 2026-05-04 19:30 | 38.01164 | -130.04677 | 37116 ft | 467 kts | 104° |
| 2026-05-04 19:30 | 37.99436 | -129.96762 | 37122 ft | 464 kts | 97° |
| 2026-05-04 19:31 | 37.98238 | -129.88726 | 37115 ft | 464 kts | 97° |
| 2026-05-04 19:31 | 37.97048 | -129.80677 | 37106 ft | 465 kts | 97° |
| 2026-05-04 19:32 | 37.95831 | -129.72623 | 37105 ft | 465 kts | 97° |
| 2026-05-04 19:32 | 37.94606 | -129.64647 | 37114 ft | 465 kts | 97° |
| 2026-05-04 19:33 | 37.93360 | -129.56588 | 37111 ft | 466 kts | 97° |
| 2026-05-04 19:33 | 37.92109 | -129.48537 | 37111 ft | 466 kts | 97° |
| 2026-05-04 19:34 | 37.90854 | -129.40495 | 37113 ft | 466 kts | 97° |
| 2026-05-04 19:34 | 37.89593 | -129.32447 | 37123 ft | 466 kts | 97° |
| 2026-05-04 19:35 | 37.88325 | -129.24396 | 37128 ft | 467 kts | 97° |
| 2026-05-04 19:35 | 37.87051 | -129.16343 | 37110 ft | 467 kts | 97° |
| 2026-05-04 19:36 | 37.85773 | -129.08299 | 37103 ft | 466 kts | 98° |
| 2026-05-04 19:36 | 37.84490 | -129.00267 | 37118 ft | 466 kts | 98° |
| 2026-05-04 19:37 | 37.83201 | -128.92230 | 37107 ft | 466 kts | 98° |
| 2026-05-04 19:37 | 37.81906 | -128.84189 | 37117 ft | 467 kts | 98° |
| 2026-05-04 19:38 | 37.80603 | -128.76140 | 37105 ft | 467 kts | 98° |
| 2026-05-04 19:38 | 37.79293 | -128.68084 | 37104 ft | 467 kts | 98° |
| 2026-05-04 19:39 | 37.77979 | -128.60044 | 37113 ft | 467 kts | 98° |
| 2026-05-04 19:39 | 37.76660 | -128.52004 | 37104 ft | 467 kts | 98° |
| 2026-05-04 19:40 | 37.75338 | -128.43986 | 37105 ft | 466 kts | 98° |
| 2026-05-04 19:40 | 37.74013 | -128.35981 | 37103 ft | 465 kts | 98° |
| 2026-05-04 19:41 | 37.72683 | -128.27985 | 37099 ft | 465 kts | 98° |
| 2026-05-04 19:41 | 37.71357 | -128.20044 | 37103 ft | 466 kts | 98° |
| 2026-05-04 19:42 | 37.70015 | -128.12045 | 37105 ft | 466 kts | 98° |
| 2026-05-04 19:42 | 37.68667 | -128.04043 | 37100 ft | 466 kts | 98° |
| 2026-05-04 19:43 | 37.67314 | -127.96048 | 37099 ft | 466 kts | 98° |
| 2026-05-04 19:43 | 37.65954 | -127.88046 | 37105 ft | 466 kts | 98° |
| 2026-05-04 19:44 | 37.64586 | -127.80036 | 37101 ft | 467 kts | 98° |
| 2026-05-04 19:44 | 37.63214 | -127.72030 | 37101 ft | 467 kts | 98° |
| 2026-05-04 19:45 | 37.61836 | -127.64030 | 37112 ft | 467 kts | 98° |
| 2026-05-04 19:45 | 37.60452 | -127.56029 | 37103 ft | 467 kts | 98° |
| 2026-05-04 19:46 | 37.59062 | -127.48024 | 37104 ft | 467 kts | 98° |
| 2026-05-04 19:46 | 37.57669 | -127.40033 | 37101 ft | 467 kts | 98° |
| 2026-05-04 19:47 | 37.56270 | -127.32046 | 37092 ft | 466 kts | 98° |
| 2026-05-04 19:47 | 37.54868 | -127.24073 | 37095 ft | 466 kts | 99° |
| 2026-05-04 19:48 | 37.53460 | -127.16101 | 37093 ft | 466 kts | 99° |
| 2026-05-04 19:48 | 37.52059 | -127.08191 | 37102 ft | 466 kts | 99° |
| 2026-05-04 19:49 | 37.50711 | -127.00222 | 37105 ft | 464 kts | 95° |
| 2026-05-04 19:49 | 37.50190 | -126.92172 | 37101 ft | 461 kts | 90° |
| 2026-05-04 19:50 | 37.49883 | -126.84107 | 37097 ft | 461 kts | 90° |
| 2026-05-04 19:50 | 37.49553 | -126.76039 | 37099 ft | 462 kts | 90° |
| 2026-05-04 19:51 | 37.49199 | -126.67955 | 37096 ft | 462 kts | 90° |
| 2026-05-04 19:51 | 37.48831 | -126.59868 | 37095 ft | 463 kts | 90° |
| 2026-05-04 19:52 | 37.48457 | -126.51782 | 37100 ft | 463 kts | 90° |
| 2026-05-04 19:52 | 37.48078 | -126.43689 | 37107 ft | 463 kts | 91° |
| 2026-05-04 19:53 | 37.47693 | -126.35582 | 37097 ft | 465 kts | 91° |
| 2026-05-04 19:53 | 37.47302 | -126.27460 | 37099 ft | 466 kts | 91° |
| 2026-05-04 19:54 | 37.46904 | -126.19316 | 37101 ft | 466 kts | 91° |
| 2026-05-04 19:54 | 37.46500 | -126.11163 | 37096 ft | 467 kts | 91° |
| 2026-05-04 19:55 | 37.46090 | -126.03010 | 37093 ft | 467 kts | 91° |
| 2026-05-04 19:55 | 37.45675 | -125.94859 | 37095 ft | 467 kts | 91° |
| 2026-05-04 19:56 | 37.45253 | -125.86687 | 37100 ft | 468 kts | 91° |
| 2026-05-04 19:56 | 37.44825 | -125.78506 | 37100 ft | 469 kts | 91° |
| 2026-05-04 19:57 | 37.44391 | -125.70304 | 37103 ft | 470 kts | 91° |
| 2026-05-04 19:57 | 37.43950 | -125.62099 | 37094 ft | 470 kts | 91° |
| 2026-05-04 19:58 | 37.43503 | -125.53892 | 37095 ft | 470 kts | 91° |
| 2026-05-04 19:58 | 37.43052 | -125.45695 | 37099 ft | 470 kts | 92° |
| 2026-05-04 19:59 | 37.42593 | -125.37471 | 37098 ft | 472 kts | 92° |
| 2026-05-04 19:59 | 37.42127 | -125.29219 | 37098 ft | 473 kts | 92° |
| 2026-05-04 20:00 | 37.41654 | -125.20946 | 37094 ft | 475 kts | 92° |
| 2026-05-04 20:00 | 37.41174 | -125.12657 | 37100 ft | 476 kts | 92° |
| 2026-05-04 20:01 | 37.40690 | -125.04407 | 37098 ft | 476 kts | 92° |
| 2026-05-04 20:01 | 37.40194 | -124.96048 | 37095 ft | 477 kts | 93° |
| 2026-05-04 20:02 | 37.39697 | -124.87777 | 37095 ft | 478 kts | 93° |
| 2026-05-04 20:02 | 37.39191 | -124.79444 | 37093 ft | 478 kts | 93° |
| 2026-05-04 20:03 | 37.38679 | -124.71107 | 37090 ft | 479 kts | 93° |
| 2026-05-04 20:03 | 37.38160 | -124.62759 | 37090 ft | 479 kts | 94° |
| 2026-05-04 20:04 | 37.37635 | -124.54414 | 37087 ft | 479 kts | 94° |
| 2026-05-04 20:04 | 37.37104 | -124.46059 | 37091 ft | 479 kts | 94° |
| 2026-05-04 20:05 | 37.36567 | -124.37709 | 37088 ft | 479 kts | 94° |
| 2026-05-04 20:05 | 37.36024 | -124.29363 | 37086 ft | 479 kts | 94° |
| 2026-05-04 20:06 | 37.35476 | -124.21023 | 37087 ft | 479 kts | 94° |
| 2026-05-04 20:06 | 37.35012 | -124.14038 | 37090 ft | 479 kts | 94° |
| 2026-05-04 20:07 | 37.34458 | -124.05762 | 37087 ft | 479 kts | 94° |
| 2026-05-04 20:07 | 37.33893 | -123.97429 | 37092 ft | 479 kts | 94° |
| 2026-05-04 20:08 | 37.33323 | -123.89087 | 37084 ft | 480 kts | 95° |
| 2026-05-04 20:08 | 37.32744 | -123.80719 | 37090 ft | 481 kts | 95° |
| 2026-05-04 20:09 | 37.32157 | -123.72325 | 37093 ft | 483 kts | 95° |
| 2026-05-04 20:09 | 37.31564 | -123.63918 | 37087 ft | 484 kts | 95° |
| 2026-05-04 20:10 | 37.30963 | -123.55495 | 37086 ft | 484 kts | 95° |
| 2026-05-04 20:10 | 37.30357 | -123.47082 | 37084 ft | 484 kts | 95° |
| 2026-05-04 20:11 | 37.29745 | -123.38662 | 37082 ft | 484 kts | 95° |
| 2026-05-04 20:11 | 37.29126 | -123.30248 | 37087 ft | 484 kts | 95° |
| 2026-05-04 20:12 | 37.28502 | -123.21834 | 37086 ft | 484 kts | 95° |
| 2026-05-04 20:12 | 37.27872 | -123.13423 | 37080 ft | 484 kts | 95° |
| 2026-05-04 20:13 | 37.27237 | -123.05015 | 37083 ft | 484 kts | 96° |
| 2026-05-04 20:13 | 37.26594 | -122.96590 | 37082 ft | 485 kts | 96° |
| 2026-05-04 20:14 | 37.25559 | -122.88241 | 37081 ft | 485 kts | 108° |
| 2026-05-04 20:14 | 37.22765 | -122.80554 | 37085 ft | 486 kts | 124° |
| 2026-05-04 20:15 | 37.18875 | -122.73609 | 37087 ft | 488 kts | 126° |
| 2026-05-04 20:15 | 37.14909 | -122.66674 | 37087 ft | 490 kts | 126° |
| 2026-05-04 20:16 | 37.10965 | -122.59694 | 37074 ft | 492 kts | 126° |
| 2026-05-04 20:16 | 37.07032 | -122.52678 | 37084 ft | 492 kts | 126° |
| 2026-05-04 20:17 | 37.03096 | -122.45651 | 37084 ft | 493 kts | 126° |
| 2026-05-04 20:17 | 36.99157 | -122.38635 | 37080 ft | 493 kts | 127° |
| 2026-05-04 20:18 | 36.95213 | -122.31629 | 37084 ft | 492 kts | 127° |
| 2026-05-04 20:18 | 36.91296 | -122.24688 | 37085 ft | 492 kts | 127° |
| 2026-05-04 20:19 | 36.87353 | -122.17716 | 37081 ft | 491 kts | 127° |
| 2026-05-04 20:19 | 36.83405 | -122.10748 | 37101 ft | 492 kts | 128° |
| 2026-05-04 20:20 | 36.79444 | -122.03773 | 37086 ft | 493 kts | 128° |
| 2026-05-04 20:20 | 36.75473 | -121.96794 | 37102 ft | 493 kts | 128° |
| 2026-05-04 20:21 | 36.71497 | -121.89822 | 37090 ft | 494 kts | 129° |
| 2026-05-04 20:21 | 36.65519 | -121.79365 | 37070 ft | 494 kts | 129° |
| 2026-05-04 20:22 | 36.61527 | -121.72397 | 37084 ft | 494 kts | 129° |
| 2026-05-04 20:22 | 36.57529 | -121.65435 | 37072 ft | 495 kts | 130° |
| 2026-05-04 20:23 | 36.53527 | -121.58483 | 37068 ft | 494 kts | 130° |
| 2026-05-04 20:23 | 36.49518 | -121.51530 | 37046 ft | 494 kts | 130° |
| 2026-05-04 20:24 | 36.45521 | -121.44607 | 37044 ft | 494 kts | 131° |
| 2026-05-04 20:24 | 36.41507 | -121.37677 | 37067 ft | 494 kts | 131° |
| 2026-05-04 20:25 | 36.37488 | -121.30752 | 37045 ft | 495 kts | 131° |
| 2026-05-04 20:25 | 36.33465 | -121.23832 | 37027 ft | 495 kts | 131° |
| 2026-05-04 20:26 | 36.29438 | -121.16918 | 37039 ft | 494 kts | 132° |
| 2026-05-04 20:26 | 36.25407 | -121.10011 | 37043 ft | 494 kts | 132° |
| 2026-05-04 20:27 | 36.21371 | -121.03112 | 37021 ft | 494 kts | 132° |
| 2026-05-04 20:27 | 36.17339 | -120.96230 | 37029 ft | 493 kts | 133° |
| 2026-05-04 20:28 | 36.13339 | -120.89415 | 37025 ft | 493 kts | 133° |
| 2026-05-04 20:28 | 36.09308 | -120.82566 | 37037 ft | 492 kts | 133° |
| 2026-05-04 20:29 | 36.05279 | -120.75734 | 37041 ft | 492 kts | 133° |
| 2026-05-04 20:29 | 36.01248 | -120.68910 | 37031 ft | 491 kts | 134° |
| 2026-05-04 20:30 | 35.97215 | -120.62096 | 37039 ft | 491 kts | 134° |
| 2026-05-04 20:30 | 35.93180 | -120.55294 | 37043 ft | 491 kts | 134° |
| 2026-05-04 20:31 | 35.89145 | -120.48502 | 37024 ft | 491 kts | 134° |
| 2026-05-04 20:31 | 35.85103 | -120.41711 | 37053 ft | 490 kts | 135° |
| 2026-05-04 20:32 | 35.81068 | -120.34947 | 37049 ft | 490 kts | 135° |
| 2026-05-04 20:32 | 35.77027 | -120.28187 | 37048 ft | 490 kts | 135° |
| 2026-05-04 20:33 | 35.72980 | -120.21427 | 37030 ft | 490 kts | 135° |
| 2026-05-04 20:33 | 35.68923 | -120.14768 | 37029 ft | 485 kts | 139° |
| 2026-05-04 20:34 | 35.64146 | -120.09137 | 37027 ft | 470 kts | 150° |
| 2026-05-04 20:34 | 35.58766 | -120.04780 | 37026 ft | 461 kts | 157° |
| 2026-05-04 20:35 | 35.53272 | -120.00717 | 37036 ft | 462 kts | 157° |
| 2026-05-04 20:35 | 35.47757 | -119.96598 | 37033 ft | 466 kts | 157° |
| 2026-05-04 20:36 | 35.42221 | -119.92434 | 37019 ft | 468 kts | 156° |
| 2026-05-04 20:36 | 35.36678 | -119.88265 | 37019 ft | 468 kts | 156° |
| 2026-05-04 20:37 | 35.31114 | -119.84094 | 37027 ft | 470 kts | 156° |
| 2026-05-04 20:37 | 35.25689 | -119.79536 | 37013 ft | 477 kts | 150° |
| 2026-05-04 20:38 | 35.20438 | -119.74570 | 36374 ft | 480 kts | 150° |
| 2026-05-04 20:38 | 35.17801 | -119.72082 | 35727 ft | 478 kts | 151° |
| 2026-05-04 20:38 | 35.15167 | -119.69608 | 34898 ft | 479 kts | 151° |
| 2026-05-04 20:39 | 35.12511 | -119.67127 | 34019 ft | 481 kts | 152° |
| 2026-05-04 20:39 | 35.09836 | -119.64637 | 33005 ft | 484 kts | 152° |
| 2026-05-04 20:39 | 35.07157 | -119.62146 | 32015 ft | 486 kts | 153° |
| 2026-05-04 20:39 | 35.04466 | -119.59643 | 31000 ft | 487 kts | 153° |
| 2026-05-04 20:40 | 35.01775 | -119.57140 | 30203 ft | 483 kts | 154° |
| 2026-05-04 20:40 | 34.99120 | -119.54669 | 29400 ft | 478 kts | 154° |
| 2026-05-04 20:40 | 34.96494 | -119.52230 | 28642 ft | 472 kts | 153° |
| 2026-05-04 20:40 | 34.93897 | -119.49822 | 27970 ft | 466 kts | 153° |
| 2026-05-04 20:41 | 34.91330 | -119.47446 | 27289 ft | 461 kts | 153° |
| 2026-05-04 20:41 | 34.88773 | -119.45123 | 26624 ft | 456 kts | 153° |
| 2026-05-04 20:41 | 34.86234 | -119.42857 | 26161 ft | 447 kts | 154° |
| 2026-05-04 20:41 | 34.83833 | -119.40699 | 25840 ft | 413 kts | 154° |
| 2026-05-04 20:42 | 34.81582 | -119.38684 | 25034 ft | 394 kts | 155° |
| 2026-05-04 20:42 | 34.79358 | -119.36721 | 24018 ft | 401 kts | 154° |
| 2026-05-04 20:42 | 34.77082 | -119.34714 | 23406 ft | 404 kts | 153° |
| 2026-05-04 20:42 | 34.74844 | -119.32714 | 23180 ft | 396 kts | 153° |
| 2026-05-04 20:43 | 34.72653 | -119.30780 | 22972 ft | 393 kts | 153° |
| 2026-05-04 20:43 | 34.70410 | -119.28825 | 22514 ft | 391 kts | 153° |
| 2026-05-04 20:43 | 34.68235 | -119.26931 | 22018 ft | 389 kts | 153° |
| 2026-05-04 20:43 | 34.66046 | -119.25020 | 21493 ft | 387 kts | 152° |
| 2026-05-04 20:44 | 34.63837 | -119.23099 | 20989 ft | 384 kts | 152° |
| 2026-05-04 20:44 | 34.61689 | -119.21248 | 20533 ft | 382 kts | 152° |
| 2026-05-04 20:44 | 34.59524 | -119.19386 | 20091 ft | 381 kts | 151° |
| 2026-05-04 20:44 | 34.57372 | -119.17534 | 19690 ft | 378 kts | 150° |
| 2026-05-04 20:45 | 34.55213 | -119.15662 | 19283 ft | 376 kts | 149° |
| 2026-05-04 20:45 | 34.53102 | -119.13794 | 18891 ft | 374 kts | 148° |
| 2026-05-04 20:45 | 34.51013 | -119.11934 | 18482 ft | 372 kts | 148° |
| 2026-05-04 20:45 | 34.48929 | -119.10081 | 18067 ft | 370 kts | 148° |
| 2026-05-04 20:46 | 34.46860 | -119.08247 | 17662 ft | 367 kts | 148° |
| 2026-05-04 20:46 | 34.44804 | -119.06430 | 17257 ft | 364 kts | 148° |
| 2026-05-04 20:46 | 34.42757 | -119.04636 | 16800 ft | 362 kts | 148° |
| 2026-05-04 20:46 | 34.40714 | -119.02869 | 16386 ft | 360 kts | 148° |
| 2026-05-04 20:47 | 34.38685 | -119.01116 | 15955 ft | 358 kts | 148° |
| 2026-05-04 20:47 | 34.36691 | -118.99392 | 15535 ft | 356 kts | 148° |
| 2026-05-04 20:47 | 34.34684 | -118.97656 | 15142 ft | 354 kts | 148° |
| 2026-05-04 20:47 | 34.32705 | -118.95905 | 14785 ft | 352 kts | 147° |
| 2026-05-04 20:48 | 34.30760 | -118.94129 | 14363 ft | 350 kts | 147° |
| 2026-05-04 20:48 | 34.28818 | -118.92356 | 13939 ft | 349 kts | 147° |
| 2026-05-04 20:48 | 34.26908 | -118.90616 | 13875 ft | 334 kts | 147° |
| 2026-05-04 20:48 | 34.25122 | -118.88987 | 13638 ft | 311 kts | 147° |
| 2026-05-04 20:49 | 34.23441 | -118.87444 | 13055 ft | 298 kts | 148° |
| 2026-05-04 20:49 | 34.21782 | -118.85922 | 12496 ft | 301 kts | 147° |
| 2026-05-04 20:49 | 34.20121 | -118.84397 | 12231 ft | 298 kts | 148° |
| 2026-05-04 20:49 | 34.18480 | -118.82892 | 12041 ft | 292 kts | 147° |
| 2026-05-04 20:50 | 34.16881 | -118.81423 | 11974 ft | 288 kts | 147° |
| 2026-05-04 20:50 | 34.15324 | -118.79890 | 11918 ft | 289 kts | 142° |
| 2026-05-04 20:50 | 34.13825 | -118.78253 | 11597 ft | 291 kts | 140° |
| 2026-05-04 20:50 | 34.12328 | -118.76589 | 11242 ft | 292 kts | 141° |
| 2026-05-04 20:51 | 34.10849 | -118.74950 | 11003 ft | 287 kts | 141° |
| 2026-05-04 20:51 | 34.09370 | -118.73327 | 10661 ft | 288 kts | 141° |
| 2026-05-04 20:51 | 34.07885 | -118.71709 | 10341 ft | 288 kts | 141° |
| 2026-05-04 20:51 | 34.06404 | -118.70100 | 10117 ft | 285 kts | 141° |
| 2026-05-04 20:52 | 34.04931 | -118.68501 | 9824 ft | 285 kts | 141° |
| 2026-05-04 20:52 | 34.03525 | -118.66847 | 9478 ft | 284 kts | 129° |
| 2026-05-04 20:52 | 34.02759 | -118.64622 | 9055 ft | 293 kts | 98° |
| 2026-05-04 20:52 | 34.02553 | -118.62191 | 8739 ft | 293 kts | 96° |
| 2026-05-04 20:53 | 34.02337 | -118.59755 | 8512 ft | 290 kts | 97° |
| 2026-05-04 20:53 | 34.02112 | -118.57349 | 8250 ft | 287 kts | 97° |
| 2026-05-04 20:53 | 34.01888 | -118.54973 | 8046 ft | 283 kts | 97° |
| 2026-05-04 20:53 | 34.01673 | -118.52668 | 7812 ft | 268 kts | 97° |
| 2026-05-04 20:54 | 34.01469 | -118.50485 | 7403 ft | 256 kts | 97° |
| 2026-05-04 20:54 | 34.01270 | -118.48385 | 7053 ft | 256 kts | 97° |
| 2026-05-04 20:54 | 34.01136 | -118.46957 | 6993 ft | 251 kts | 97° |
| 2026-05-04 20:54 | 34.01071 | -118.44888 | 6904 ft | 249 kts | 82° |
| 2026-05-04 20:55 | 34.01410 | -118.42818 | 6721 ft | 254 kts | 76° |
| 2026-05-04 20:55 | 34.01815 | -118.40741 | 6516 ft | 254 kts | 76° |
| 2026-05-04 20:55 | 34.02316 | -118.38018 | 6191 ft | 249 kts | 77° |
| 2026-05-04 20:55 | 34.02674 | -118.36008 | 6071 ft | 241 kts | 78° |
| 2026-05-04 20:56 | 34.02873 | -118.34682 | 6014 ft | 235 kts | 83° |
| 2026-05-04 20:56 | 34.03073 | -118.32728 | 6012 ft | 239 kts | 84° |
| 2026-05-04 20:56 | 34.03267 | -118.30707 | 6020 ft | 248 kts | 85° |
| 2026-05-04 20:56 | 34.03354 | -118.28648 | 5822 ft | 249 kts | 102° |
| 2026-05-04 20:57 | 34.02630 | -118.26794 | 5389 ft | 242 kts | 131° |
| 2026-05-04 20:57 | 34.01574 | -118.25206 | 5009 ft | 244 kts | 130° |
| 2026-05-04 20:57 | 34.00562 | -118.23591 | 4597 ft | 236 kts | 130° |
| 2026-05-04 20:57 | 33.99602 | -118.22044 | 4238 ft | 224 kts | 130° |
| 2026-05-04 20:58 | 33.98591 | -118.20755 | 3943 ft | 201 kts | 155° |
| 2026-05-04 20:58 | 33.97327 | -118.20469 | 3656 ft | 180 kts | 197° |
| 2026-05-04 20:58 | 33.96106 | -118.20873 | 3378 ft | 186 kts | 198° |
| 2026-05-04 20:58 | 33.94999 | -118.21531 | 2975 ft | 173 kts | 234° |
| 2026-05-04 20:59 | 33.94755 | -118.22832 | 2756 ft | 156 kts | 274° |
| 2026-05-04 20:59 | 33.94811 | -118.24075 | 2515 ft | 145 kts | 267° |
| 2026-05-04 20:59 | 33.94779 | -118.25216 | 2293 ft | 128 kts | 265° |
| 2026-05-04 20:59 | 33.94718 | -118.26292 | 2104 ft | 130 kts | 265° |
| 2026-05-04 21:00 | 33.94695 | -118.27387 | 1983 ft | 132 kts | 265° |
| 2026-05-04 21:00 | 33.94651 | -118.28490 | 1854 ft | 130 kts | 264° |
| 2026-05-04 21:00 | 33.94575 | -118.29541 | 1758 ft | 123 kts | 263° |
| 2026-05-04 21:00 | 33.94478 | -118.30599 | 1592 ft | 130 kts | 263° |
| 2026-05-04 21:01 | 33.94368 | -118.31698 | 1424 ft | 134 kts | 263° |
| 2026-05-04 21:01 | 33.94271 | -118.32833 | 1234 ft | 139 kts | 263° |
| 2026-05-04 21:01 | 33.94174 | -118.33975 | 1016 ft | 135 kts | 261° |
| 2026-05-04 21:01 | 33.94060 | -118.35087 | 802 ft | 131 kts | 261° |
| 2026-05-04 21:02 | 33.93946 | -118.36157 | 519 ft | 128 kts | 263° |
| 2026-05-04 21:02 | 33.93849 | -118.37194 | 330 ft | 123 kts | 263° |
| 2026-05-04 21:02 | 33.93747 | -118.38252 | 204 ft | 129 kts | 261° |
| 2026-05-04 21:02 | 33.93635 | -118.39305 | 129 ft | 119 kts | 260° |
| 2026-05-04 21:03 | 33.93545 | -118.40144 | 127 ft | 79 kts | 262° |
| 2026-05-04 21:03 | 33.93495 | -118.40624 | 131 ft | 44 kts | 264° |
| 2026-05-04 21:03 | 33.93479 | -118.40912 | 127 ft | 13 kts | 271° |
| 2026-05-04 21:03 | 33.93491 | -118.41016 | 131 ft | 13 kts | 282° |
| 2026-05-04 21:04 | 33.93513 | -118.41104 | 126 ft | 10 kts | 292° |
| 2026-05-04 21:04 | 33.93534 | -118.41171 | 126 ft | 6 kts | 287° |
| 2026-05-04 21:04 | 33.93547 | -118.41224 | 128 ft | 7 kts | 298° |
| 2026-05-04 21:04 | 33.93587 | -118.41256 | 127 ft | 7 kts | 342° |
| 2026-05-04 21:05 | 33.93639 | -118.41268 | 128 ft | 8 kts | 350° |
| 2026-05-04 21:05 | 33.93694 | -118.41276 | 126 ft | 7 kts | 353° |
| 2026-05-04 21:05 | 33.93741 | -118.41269 | 126 ft | 7 kts | 17° |
| 2026-05-04 21:05 | 33.93773 | -118.41259 | 128 ft | 0 kts | 11° |
| 2026-05-04 21:06 | 33.93779 | -118.41258 | 128 ft | 2 kts | 7° |
| 2026-05-04 21:06 | 33.93796 | -118.41255 | 127 ft | 3 kts | 8° |
| 2026-05-04 21:06 | 33.93827 | -118.41227 | 127 ft | 9 kts | 56° |
| 2026-05-04 21:06 | 33.93871 | -118.41172 | 125 ft | 10 kts | 14° |
| 2026-05-04 21:07 | 33.93940 | -118.41172 | 127 ft | 10 kts | 353° |
| 2026-05-04 21:07 | 33.93996 | -118.41162 | 128 ft | 6 kts | 42° |
| 2026-05-04 21:07 | 33.94015 | -118.41115 | 126 ft | 5 kts | 75° |
| 2026-05-04 21:07 | 33.94016 | -118.41107 | 126 ft | 2 kts | 78° |
| 2026-05-04 21:08 | 33.94018 | -118.41088 | 128 ft | 2 kts | 82° |
| 2026-05-04 21:08 | 33.94019 | -118.41084 | 129 ft | 0 kts | 82° |